Observation data for Canadian on 05/27/2019      Previous  Date  Next       Current Mesonet Observations  Soil Data  Daily Summary Page  Observations in Plain Language
KCA1 270500Z 13007KT 16/15 A2986 RMK A01 T01580149  RH  094%=      5-min Rain = 0
KCA1 270501Z 13006KT 16/15 A2987 RMK A01 T01580148  RH  094%=      5-min Rain = 0
KCA1 270502Z 12007KT 16/15 A2987 RMK A01 T01570149  RH  095%=      5-min Rain = 0
KCA1 270503Z 13009KT 16/15 A2987 RMK A01 T01570149  RH  095%=      5-min Rain = 0
KCA1 270504Z 13009KT 16/15 A2987 RMK A01 T01580150  RH  095%=      5-min Rain = 0.01
KCA1 270505Z 13009KT 16/15 A2987 RMK A01 T01590152  RH  095%=      5-min Rain = 0
KCA1 270506Z 13011KT 16/15 A2986 RMK A01 T01590152  RH  095%=      5-min Rain = 0.01
KCA1 270507Z 13014KT 16/15 A2985 RMK A01 T01590153  RH  096%=      5-min Rain = 0
KCA1 270508Z 12017KT 16/15 A2983 RMK A01 T01590153  RH  096%=      5-min Rain = 0.01
KCA1 270509Z 12018KT 16/15 A2982 RMK A01 T01590154  RH  097%=      5-min Rain = 0.01
KCA1 270510Z 13020KT 16/16 A298 RMK A01 T01590156  RH  098%=      5-min Rain = 0.01
KCA1 270511Z 13020KT 16/16 A298 RMK A01 T01610160  RH  099%=      5-min Rain = 0
KCA1 270512Z 13019G24KT 17/17 A2979 RMK A01 T01650165  RH  100%=      5-min Rain = 0
KCA1 270513Z 13019KT 17/17 A2979 RMK A01 T01680168  RH  100%=      5-min Rain = 0
KCA1 270514Z 13017KT 17/17 A298 RMK A01 T01700170  RH  100%=      5-min Rain = 0
KCA1 270515Z 13018KT 17/17 A298 RMK A01 T01700170  RH  100%=      5-min Rain = 0
KCA1 270516Z 14018KT 17/17 A2981 RMK A01 T01710170  RH  100%=      5-min Rain = 0
KCA1 270517Z 13019KT 17/17 A298 RMK A01 T01720171  RH  099%=      5-min Rain = 0.01
KCA1 270518Z 13019KT 17/17 A298 RMK A01 T01730171  RH  099%=      5-min Rain = 0
KCA1 270519Z 13019KT 17/17 A298 RMK A01 T01730170  RH  098%=      5-min Rain = 0
KCA1 270520Z 13019KT 17/17 A298 RMK A01 T01730170  RH  098%=      5-min Rain = 0
KCA1 270521Z 14018KT 18/17 A298 RMK A01 T01750172  RH  098%=      5-min Rain = 0
KCA1 270522Z 12017KT 18/17 A2981 RMK A01 T01770173  RH  098%=      5-min Rain = 0
KCA1 270523Z 12016KT 18/17 A2981 RMK A01 T01770172  RH  097%=      5-min Rain = 0
KCA1 270524Z 12016KT 18/17 A2981 RMK A01 T01760168  RH  095%=      5-min Rain = 0
KCA1 270525Z 11013KT 17/17 A2981 RMK A01 T01740165  RH  095%=      5-min Rain = 0
KCA1 270526Z 13011KT 17/16 A2981 RMK A01 T01720163  RH  095%=      5-min Rain = 0
KCA1 270527Z 14015KT 17/17 A2981 RMK A01 T01710165  RH  096%=      5-min Rain = 0
KCA1 270528Z 14015G23KT 17/17 A2981 RMK A01 T01720169  RH  098%=      5-min Rain = 0
KCA1 270529Z 13020KT 17/17 A2981 RMK A01 T01740174  RH  100%=      5-min Rain = 0
KCA1 270530Z 14016KT 18/18 A2981 RMK A01 T01780178  RH  100%=      5-min Rain = 0
KCA1 270531Z 15016KT 18/18 A2981 RMK A01 T01790179  RH  100%=      5-min Rain = 0
KCA1 270532Z 15016KT 18/18 A2981 RMK A01 T01800177  RH  098%=      5-min Rain = 0
KCA1 270533Z 16017KT 18/17 A2983 RMK A01 T01800174  RH  096%=      5-min Rain = 0
KCA1 270534Z 17013KT 18/17 A2983 RMK A01 T01790171  RH  095%=      5-min Rain = 0
KCA1 270535Z 19013KT 18/17 A2984 RMK A01 T01790169  RH  094%=      5-min Rain = 0
KCA1 270536Z 20015KT 18/17 A2985 RMK A01 T01780169  RH  094%=      5-min Rain = 0
KCA1 270537Z 20010KT 18/17 A2985 RMK A01 T01780169  RH  094%=      5-min Rain = 0
KCA1 270538Z 19011G16KT 18/17 A2985 RMK A01 T01770168  RH  094%=      5-min Rain = 0
KCA1 270539Z 19010KT 18/17 A2985 RMK A01 T01760166  RH  094%=      5-min Rain = 0
KCA1 270540Z 19010KT 18/17 A2985 RMK A01 T01760166  RH  094%=      5-min Rain = 0
KCA1 270541Z 20010KT 18/17 A2985 RMK A01 T01760165  RH  093%=      5-min Rain = 0
KCA1 270542Z 19006KT 18/16 A2985 RMK A01 T01760164  RH  093%=      5-min Rain = 0
KCA1 270543Z 20009KT 18/16 A2985 RMK A01 T01760164  RH  093%=      5-min Rain = 0
KCA1 270544Z 19011KT 18/16 A2985 RMK A01 T01760163  RH  092%=      5-min Rain = 0
KCA1 270545Z 18009KT 18/16 A2985 RMK A01 T01770163  RH  092%=      5-min Rain = 0
KCA1 270546Z 18007KT 18/16 A2985 RMK A01 T01770163  RH  092%=      5-min Rain = 0
KCA1 270547Z 19005KT 18/16 A2984 RMK A01 T01770164  RH  092%=      5-min Rain = 0
KCA1 270548Z 20004KT 18/16 A2984 RMK A01 T01750164  RH  093%=      5-min Rain = 0
KCA1 270549Z 22004KT 17/16 A2984 RMK A01 T01740164  RH  094%=      5-min Rain = 0
KCA1 270550Z 20004KT 17/17 A2984 RMK A01 T01740165  RH  094%=      5-min Rain = 0
KCA1 270551Z 21005KT 17/17 A2984 RMK A01 T01730165  RH  095%=      5-min Rain = 0
KCA1 270552Z 22003KT 17/17 A2984 RMK A01 T01730165  RH  095%=      5-min Rain = 0
KCA1 270553Z 21004KT 17/16 A2984 RMK A01 T01730164  RH  095%=      5-min Rain = 0
KCA1 270554Z 20005KT 17/16 A2984 RMK A01 T01730164  RH  094%=      5-min Rain = 0
KCA1 270555Z 20006KT 17/16 A2984 RMK A01 T01730163  RH  094%=      5-min Rain = 0
KCA1 270556Z 20005KT 17/16 A2984 RMK A01 T01740161  RH  092%=      5-min Rain = 0
KCA1 270557Z 21004KT 17/16 A2984 RMK A01 T01740162  RH  092%=      5-min Rain = 0
KCA1 270558Z 21002KT 18/16 A2984 RMK A01 T01750162  RH  092%=      5-min Rain = 0
KCA1 270559Z 19000KT 18/16 A2984 RMK A01 T01750162  RH  092%=      5-min Rain = 0
KCA1 270600Z 18002KT 17/16 A2984 RMK A01 T01740161  RH  092%=      5-min Rain = 0
KCA1 270601Z 18002KT 17/16 A2984 RMK A01 T01740160  RH  091%=      5-min Rain = 0
KCA1 270602Z 17001KT 17/16 A2985 RMK A01 T01740160  RH  091%=      5-min Rain = 0
KCA1 270603Z 18001KT 17/16 A2985 RMK A01 T01740159  RH  091%=      5-min Rain = 0
KCA1 270604Z 22001KT 17/16 A2985 RMK A01 T01740159  RH  091%=      5-min Rain = 0
KCA1 270605Z 21002KT 17/16 A2985 RMK A01 T01740158  RH  090%=      5-min Rain = 0
KCA1 270606Z 20002KT 17/16 A2985 RMK A01 T01740157  RH  090%=      5-min Rain = 0
KCA1 270607Z 21001KT 17/16 A2985 RMK A01 T01740156  RH  089%=      5-min Rain = 0
KCA1 270608Z 26001KT 18/16 A2986 RMK A01 T01750156  RH  089%=      5-min Rain = 0
KCA1 270609Z 30001KT 18/16 A2985 RMK A01 T01750158  RH  090%=      5-min Rain = 0
KCA1 270610Z 27001KT 18/16 A2985 RMK A01 T01750159  RH  090%=      5-min Rain = 0
KCA1 270611Z 34001KT 17/16 A2985 RMK A01 T01740159  RH  091%=      5-min Rain = 0
KCA1 270612Z 01002KT 17/16 A2985 RMK A01 T01740160  RH  092%=      5-min Rain = 0
KCA1 270613Z 03003KT 17/16 A2984 RMK A01 T01730161  RH  093%=      5-min Rain = 0
KCA1 270614Z 03004KT 17/16 A2984 RMK A01 T01720161  RH  093%=      5-min Rain = 0
KCA1 270615Z 02004KT 17/16 A2983 RMK A01 T01720161  RH  094%=      5-min Rain = 0
KCA1 270616Z 03004KT 17/16 A2983 RMK A01 T01710161  RH  094%=      5-min Rain = 0
KCA1 270617Z 03005KT 17/16 A2983 RMK A01 T01710161  RH  094%=      5-min Rain = 0
KCA1 270618Z 02005KT 17/16 A2983 RMK A01 T01700161  RH  094%=      5-min Rain = 0
KCA1 270619Z 02005KT 17/16 A2983 RMK A01 T01710162  RH  094%=      5-min Rain = 0
KCA1 270620Z 02005KT 17/16 A2983 RMK A01 T01710162  RH  095%=      5-min Rain = 0
KCA1 270621Z 01007KT 17/16 A2983 RMK A01 T01700163  RH  095%=      5-min Rain = 0
KCA1 270622Z 00007KT 17/16 A2983 RMK A01 T01700163  RH  096%=      5-min Rain = 0
KCA1 270623Z 00007KT 17/16 A2983 RMK A01 T01700164  RH  096%=      5-min Rain = 0
KCA1 270624Z 01007KT 17/16 A2983 RMK A01 T01700164  RH  096%=      5-min Rain = 0
KCA1 270625Z 00007KT 17/16 A2983 RMK A01 T01700164  RH  096%=      5-min Rain = 0
KCA1 270626Z 01008KT 17/16 A2983 RMK A01 T01700164  RH  096%=      5-min Rain = 0
KCA1 270627Z 02009KT 17/16 A2982 RMK A01 T01700164  RH  096%=      5-min Rain = 0
KCA1 270628Z 02009KT 17/16 A2982 RMK A01 T01700164  RH  096%=      5-min Rain = 0
KCA1 270629Z 02007KT 17/16 A2982 RMK A01 T01700164  RH  096%=      5-min Rain = 0
KCA1 270630Z 03009KT 17/16 A2981 RMK A01 T01690164  RH  096%=      5-min Rain = 0
KCA1 270631Z 03009KT 17/16 A2981 RMK A01 T01690163  RH  096%=      5-min Rain = 0
KCA1 270632Z 03009KT 17/16 A2981 RMK A01 T01690163  RH  096%=      5-min Rain = 0
KCA1 270633Z 03009KT 17/16 A2981 RMK A01 T01680162  RH  096%=      5-min Rain = 0
KCA1 270634Z 04006KT 17/16 A2981 RMK A01 T01680162  RH  096%=      5-min Rain = 0
KCA1 270635Z 04007KT 17/16 A2981 RMK A01 T01680161  RH  096%=      5-min Rain = 0
KCA1 270636Z 04007KT 17/16 A2981 RMK A01 T01680160  RH  095%=      5-min Rain = 0
KCA1 270637Z 05004KT 17/16 A2981 RMK A01 T01670157  RH  094%=      5-min Rain = 0
KCA1 270638Z 06005KT 17/16 A2981 RMK A01 T01680156  RH  093%=      5-min Rain = 0
KCA1 270639Z 05006KT 17/16 A2981 RMK A01 T01680156  RH  093%=      5-min Rain = 0
KCA1 270640Z 05006KT 17/16 A2982 RMK A01 T01690156  RH  092%=      5-min Rain = 0
KCA1 270641Z 06005KT 17/16 A2982 RMK A01 T01700155  RH  091%=      5-min Rain = 0
KCA1 270642Z 06005KT 17/15 A2982 RMK A01 T01700154  RH  091%=      5-min Rain = 0
KCA1 270643Z 05004KT 17/16 A2982 RMK A01 T01700155  RH  091%=      5-min Rain = 0
KCA1 270644Z 05004KT 17/16 A2983 RMK A01 T01700156  RH  092%=      5-min Rain = 0
KCA1 270645Z 07003KT 17/16 A2983 RMK A01 T01690156  RH  092%=      5-min Rain = 0
KCA1 270646Z 08002KT 17/16 A2983 RMK A01 T01690157  RH  093%=      5-min Rain = 0
KCA1 270647Z 08003KT 17/16 A2983 RMK A01 T01690159  RH  093%=      5-min Rain = 0
KCA1 270648Z 10005KT 17/16 A2983 RMK A01 T01690159  RH  094%=      5-min Rain = 0
KCA1 270649Z 10006KT 17/16 A2982 RMK A01 T01700158  RH  093%=      5-min Rain = 0
KCA1 270650Z 11007KT 17/16 A2981 RMK A01 T01740159  RH  091%=      5-min Rain = 0
KCA1 270651Z 10009KT 18/16 A298 RMK A01 T01760160  RH  090%=      5-min Rain = 0
KCA1 270652Z 10011KT 18/16 A2979 RMK A01 T01760159  RH  089%=      5-min Rain = 0
KCA1 270653Z 10011KT 18/16 A2979 RMK A01 T01760160  RH  090%=      5-min Rain = 0
KCA1 270654Z 10009KT 18/16 A2979 RMK A01 T01760159  RH  090%=      5-min Rain = 0
KCA1 270655Z 11008KT 18/16 A298 RMK A01 T01750159  RH  090%=      5-min Rain = 0
KCA1 270656Z 12007KT 17/16 A2981 RMK A01 T01740158  RH  090%=      5-min Rain = 0
KCA1 270657Z 12007KT 17/16 A2981 RMK A01 T01740158  RH  090%=      5-min Rain = 0
KCA1 270658Z 12007KT 17/16 A2982 RMK A01 T01740160  RH  092%=      5-min Rain = 0
KCA1 270659Z 12008KT 18/16 A2981 RMK A01 T01750162  RH  092%=      5-min Rain = 0
KCA1 270700Z 12009KT 18/16 A298 RMK A01 T01750164  RH  093%=      5-min Rain = 0
KCA1 270701Z 11011KT 18/17 A298 RMK A01 T01750166  RH  094%=      5-min Rain = 0
KCA1 270702Z 12011KT 18/17 A298 RMK A01 T01750168  RH  095%=      5-min Rain = 0
KCA1 270703Z 13011KT 18/17 A298 RMK A01 T01760170  RH  096%=      5-min Rain = 0
KCA1 270704Z 13011KT 18/17 A298 RMK A01 T01770170  RH  096%=      5-min Rain = 0
KCA1 270705Z 14010KT 18/17 A2981 RMK A01 T01770170  RH  096%=      5-min Rain = 0
KCA1 270706Z 15009KT 18/17 A2981 RMK A01 T01770170  RH  096%=      5-min Rain = 0
KCA1 270707Z 16009KT 18/17 A2981 RMK A01 T01760168  RH  095%=      5-min Rain = 0
KCA1 270708Z 16007KT 17/17 A2981 RMK A01 T01740166  RH  095%=      5-min Rain = 0
KCA1 270709Z 18006KT 17/17 A2982 RMK A01 T01720165  RH  096%=      5-min Rain = 0
KCA1 270710Z 19005KT 17/17 A2983 RMK A01 T01710165  RH  096%=      5-min Rain = 0
KCA1 270711Z 18004KT 17/17 A2983 RMK A01 T01710166  RH  097%=      5-min Rain = 0
KCA1 270712Z 17005KT 17/17 A2983 RMK A01 T01710167  RH  098%=      5-min Rain = 0
KCA1 270713Z 16006KT 17/17 A2983 RMK A01 T01710167  RH  098%=      5-min Rain = 0
KCA1 270714Z 16008KT 17/17 A2982 RMK A01 T01710168  RH  098%=      5-min Rain = 0
KCA1 270715Z 15009KT 17/17 A2982 RMK A01 T01720170  RH  098%=      5-min Rain = 0
KCA1 270716Z 14010KT 17/17 A2982 RMK A01 T01730170  RH  099%=      5-min Rain = 0
KCA1 270717Z 14009KT 17/17 A2982 RMK A01 T01730171  RH  099%=      5-min Rain = 0
KCA1 270718Z 15008KT 17/17 A2982 RMK A01 T01730170  RH  098%=      5-min Rain = 0
KCA1 270719Z 15007KT 17/17 A2983 RMK A01 T01730171  RH  099%=      5-min Rain = 0
KCA1 270720Z 16006KT 17/17 A2983 RMK A01 T01730171  RH  099%=      5-min Rain = 0
KCA1 270721Z 16006KT 17/17 A2983 RMK A01 T01740172  RH  099%=      5-min Rain = 0
KCA1 270722Z 16006KT 18/18 A2984 RMK A01 T01750175  RH  100%=      5-min Rain = 0
KCA1 270723Z 19005KT 18/18 A2984 RMK A01 T01780177  RH  099%=      5-min Rain = 0
KCA1 270724Z 21004KT 18/18 A2984 RMK A01 T01790176  RH  098%=      5-min Rain = 0
KCA1 270725Z 24004KT 18/18 A2984 RMK A01 T01790175  RH  097%=      5-min Rain = 0
KCA1 270726Z 28006KT 18/17 A2985 RMK A01 T01790174  RH  097%=      5-min Rain = 0
KCA1 270727Z 29008KT 18/17 A2985 RMK A01 T01780173  RH  097%=      5-min Rain = 0
KCA1 270728Z 30008KT 18/17 A2985 RMK A01 T01770172  RH  097%=      5-min Rain = 0
KCA1 270729Z 30009KT 18/17 A2986 RMK A01 T01760172  RH  098%=      5-min Rain = 0
KCA1 270730Z 30011KT 17/17 A2986 RMK A01 T01740171  RH  098%=      5-min Rain = 0
KCA1 270731Z 30008KT 17/17 A2986 RMK A01 T01740171  RH  098%=      5-min Rain = 0
KCA1 270732Z 31009KT 17/17 A2986 RMK A01 T01740172  RH  099%=      5-min Rain = 0
KCA1 270733Z 32011KT 17/17 A2986 RMK A01 T01740173  RH  099%=      5-min Rain = 0
KCA1 270734Z 32010KT 18/17 A2986 RMK A01 T01750174  RH  099%=      5-min Rain = 0
KCA1 270735Z 31006KT 18/18 A2986 RMK A01 T01760175  RH  099%=      5-min Rain = 0
KCA1 270736Z 32005KT 18/18 A2986 RMK A01 T01780176  RH  099%=      5-min Rain = 0
KCA1 270737Z 30010G15KT 18/18 A2986 RMK A01 T01790177  RH  099%=      5-min Rain = 0
KCA1 270738Z 29009KT 18/18 A2986 RMK A01 T01810179  RH  098%=      5-min Rain = 0
KCA1 270739Z 29008KT 18/18 A2986 RMK A01 T01840182  RH  099%=      5-min Rain = 0
KCA1 270740Z 30006KT 19/18 A2986 RMK A01 T01860184  RH  099%=      5-min Rain = 0
KCA1 270741Z 30007KT 19/18 A2986 RMK A01 T01870183  RH  097%=      5-min Rain = 0
KCA1 270742Z 30005KT 19/18 A2986 RMK A01 T01880182  RH  096%=      5-min Rain = 0
KCA1 270743Z 31004KT 19/18 A2986 RMK A01 T01890182  RH  096%=      5-min Rain = 0
KCA1 270744Z 30005KT 19/18 A2985 RMK A01 T01890181  RH  095%=      5-min Rain = 0
KCA1 270745Z 30005KT 19/18 A2985 RMK A01 T01890181  RH  095%=      5-min Rain = 0
KCA1 270746Z 29002KT 19/18 A2985 RMK A01 T01900182  RH  095%=      5-min Rain = 0
KCA1 270747Z 24002KT 19/18 A2984 RMK A01 T01900182  RH  096%=      5-min Rain = 0
KCA1 270748Z 15002KT 19/18 A2984 RMK A01 T01900183  RH  096%=      5-min Rain = 0
KCA1 270749Z 14003KT 19/18 A2983 RMK A01 T01900183  RH  095%=      5-min Rain = 0
KCA1 270750Z 12005KT 19/18 A2983 RMK A01 T01910183  RH  095%=      5-min Rain = 0
KCA1 270751Z 13007KT 19/18 A2982 RMK A01 T01910183  RH  095%=      5-min Rain = 0
KCA1 270752Z 13006KT 19/18 A2982 RMK A01 T01910184  RH  096%=      5-min Rain = 0
KCA1 270753Z 16005KT 19/18 A2984 RMK A01 T01900184  RH  096%=      5-min Rain = 0
KCA1 270754Z 16005KT 19/19 A2984 RMK A01 T01900185  RH  096%=      5-min Rain = 0
KCA1 270755Z 16005KT 19/19 A2983 RMK A01 T01900185  RH  097%=      5-min Rain = 0
KCA1 270756Z 18003KT 19/19 A2983 RMK A01 T01900185  RH  097%=      5-min Rain = 0
KCA1 270757Z 16004KT 19/19 A2984 RMK A01 T01900185  RH  097%=      5-min Rain = 0
KCA1 270758Z 16006KT 19/19 A2984 RMK A01 T01910186  RH  097%=      5-min Rain = 0
KCA1 270759Z 16006KT 19/19 A2983 RMK A01 T01910187  RH  097%=      5-min Rain = 0
KCA1 270800Z 16006KT 19/19 A2983 RMK A01 T01920189  RH  098%=      5-min Rain = 0
KCA1 270801Z 16006KT 19/19 A2982 RMK A01 T01940189  RH  097%=      5-min Rain = 0
KCA1 270802Z 15007KT 20/19 A2982 RMK A01 T01950189  RH  096%=      5-min Rain = 0
KCA1 270803Z 14007KT 20/19 A2982 RMK A01 T01950189  RH  096%=      5-min Rain = 0
KCA1 270804Z 15007KT 20/19 A2982 RMK A01 T01950189  RH  096%=      5-min Rain = 0
KCA1 270805Z 15008KT 20/19 A2982 RMK A01 T01950189  RH  096%=      5-min Rain = 0
KCA1 270806Z 15009KT 20/19 A2982 RMK A01 T01950189  RH  097%=      5-min Rain = 0
KCA1 270807Z 15008KT 20/19 A2982 RMK A01 T01950190  RH  097%=      5-min Rain = 0
KCA1 270808Z 15009KT 20/19 A2981 RMK A01 T01950190  RH  097%=      5-min Rain = 0
KCA1 270809Z 15010KT 20/19 A2982 RMK A01 T01950191  RH  097%=      5-min Rain = 0
KCA1 270810Z 15010KT 20/19 A2982 RMK A01 T01950191  RH  097%=      5-min Rain = 0
KCA1 270811Z 15008KT 20/19 A2982 RMK A01 T01960192  RH  097%=      5-min Rain = 0
KCA1 270812Z 15008KT 20/19 A2981 RMK A01 T01960192  RH  097%=      5-min Rain = 0
KCA1 270813Z 15009KT 20/19 A2982 RMK A01 T01970191  RH  097%=      5-min Rain = 0
KCA1 270814Z 15009KT 20/19 A2981 RMK A01 T01970191  RH  097%=      5-min Rain = 0
KCA1 270815Z 15008KT 20/19 A2981 RMK A01 T01970191  RH  096%=      5-min Rain = 0
KCA1 270816Z 15009KT 20/19 A2981 RMK A01 T01970191  RH  096%=      5-min Rain = 0
KCA1 270817Z 15008KT 20/19 A2981 RMK A01 T01970191  RH  096%=      5-min Rain = 0
KCA1 270818Z 14008KT 20/19 A2981 RMK A01 T01970191  RH  096%=      5-min Rain = 0
KCA1 270819Z 15009KT 20/19 A2981 RMK A01 T01970191  RH  096%=      5-min Rain = 0
KCA1 270820Z 15009KT 20/19 A2981 RMK A01 T01970191  RH  097%=      5-min Rain = 0
KCA1 270821Z 15010KT 20/19 A2981 RMK A01 T01960191  RH  097%=      5-min Rain = 0
KCA1 270822Z 15010KT 20/19 A2981 RMK A01 T01950191  RH  097%=      5-min Rain = 0
KCA1 270823Z 14010KT 20/19 A298 RMK A01 T01950191  RH  098%=      5-min Rain = 0
KCA1 270824Z 15010KT 20/19 A2981 RMK A01 T01950191  RH  098%=      5-min Rain = 0
KCA1 270825Z 15009KT 20/19 A2981 RMK A01 T01950191  RH  098%=      5-min Rain = 0
KCA1 270826Z 14008KT 20/19 A2981 RMK A01 T01950191  RH  098%=      5-min Rain = 0
KCA1 270827Z 15008KT 19/19 A2981 RMK A01 T01940191  RH  098%=      5-min Rain = 0
KCA1 270828Z 15008KT 19/19 A2981 RMK A01 T01940191  RH  098%=      5-min Rain = 0
KCA1 270829Z 15007KT 19/19 A2981 RMK A01 T01940191  RH  098%=      5-min Rain = 0
KCA1 270830Z 15008KT 19/19 A2981 RMK A01 T01940191  RH  098%=      5-min Rain = 0
KCA1 270831Z 15006KT 19/19 A2981 RMK A01 T01940191  RH  098%=      5-min Rain = 0
KCA1 270832Z 15004KT 19/19 A2982 RMK A01 T01940190  RH  098%=      5-min Rain = 0
KCA1 270833Z 15004KT 19/19 A2982 RMK A01 T01940190  RH  097%=      5-min Rain = 0
KCA1 270834Z 15004KT 19/19 A2982 RMK A01 T01940190  RH  097%=      5-min Rain = 0
KCA1 270835Z 15003KT 19/19 A2982 RMK A01 T01940190  RH  097%=      5-min Rain = 0
KCA1 270836Z 15005KT 19/19 A2982 RMK A01 T01940190  RH  097%=      5-min Rain = 0
KCA1 270837Z 15005KT 19/19 A2982 RMK A01 T01940190  RH  097%=      5-min Rain = 0
KCA1 270838Z 14005KT 20/19 A2982 RMK A01 T01950190  RH  097%=      5-min Rain = 0
KCA1 270839Z 14005KT 20/19 A2982 RMK A01 T01950190  RH  097%=      5-min Rain = 0
KCA1 270840Z 15005KT 20/19 A2982 RMK A01 T01950190  RH  097%=      5-min Rain = 0
KCA1 270841Z 15006KT 20/19 A2981 RMK A01 T01950190  RH  097%=      5-min Rain = 0
KCA1 270842Z 14006KT 20/19 A2982 RMK A01 T01950190  RH  097%=      5-min Rain = 0
KCA1 270843Z 14006KT 19/19 A2981 RMK A01 T01940190  RH  097%=      5-min Rain = 0
KCA1 270844Z 14006KT 19/19 A2981 RMK A01 T01940190  RH  098%=      5-min Rain = 0
KCA1 270845Z 14007KT 19/19 A2981 RMK A01 T01940190  RH  097%=      5-min Rain = 0
KCA1 270846Z 14007KT 19/19 A2981 RMK A01 T01940190  RH  097%=      5-min Rain = 0
KCA1 270847Z 14006KT 19/19 A2981 RMK A01 T01940190  RH  097%=      5-min Rain = 0
KCA1 270848Z 14007KT 19/19 A2981 RMK A01 T01930190  RH  098%=      5-min Rain = 0
KCA1 270849Z 14008KT 19/19 A2981 RMK A01 T01940190  RH  098%=      5-min Rain = 0
KCA1 270850Z 14008KT 19/19 A2981 RMK A01 T01930190  RH  098%=      5-min Rain = 0
KCA1 270851Z 14007KT 19/19 A2981 RMK A01 T01930190  RH  098%=      5-min Rain = 0
KCA1 270852Z 15007KT 19/19 A2982 RMK A01 T01930190  RH  098%=      5-min Rain = 0
KCA1 270853Z 15007KT 19/19 A2982 RMK A01 T01930190  RH  098%=      5-min Rain = 0
KCA1 270854Z 15006KT 19/19 A2982 RMK A01 T01930190  RH  098%=      5-min Rain = 0
KCA1 270855Z 15007KT 19/19 A2982 RMK A01 T01930190  RH  098%=      5-min Rain = 0
KCA1 270856Z 15007KT 19/19 A2982 RMK A01 T01930190  RH  098%=      5-min Rain = 0
KCA1 270857Z 15007KT 19/19 A2981 RMK A01 T01920190  RH  098%=      5-min Rain = 0
KCA1 270858Z 15006KT 19/19 A2981 RMK A01 T01920190  RH  098%=      5-min Rain = 0
KCA1 270859Z 15007KT 19/19 A2981 RMK A01 T01920190  RH  099%=      5-min Rain = 0
KCA1 270900Z 15006KT 19/19 A2981 RMK A01 T01920189  RH  099%=      5-min Rain = 0
KCA1 270901Z 15008KT 19/19 A2981 RMK A01 T01920190  RH  099%=      5-min Rain = 0
KCA1 270902Z 15008KT 19/19 A2981 RMK A01 T01920190  RH  099%=      5-min Rain = 0
KCA1 270903Z 15007KT 19/19 A2981 RMK A01 T01910190  RH  099%=      5-min Rain = 0
KCA1 270904Z 16008KT 19/19 A2981 RMK A01 T01920190  RH  099%=      5-min Rain = 0
KCA1 270905Z 16008KT 19/19 A2981 RMK A01 T01910189  RH  099%=      5-min Rain = 0
KCA1 270906Z 15008KT 19/19 A2981 RMK A01 T01910189  RH  099%=      5-min Rain = 0
KCA1 270907Z 15008KT 19/19 A2981 RMK A01 T01920189  RH  099%=      5-min Rain = 0
KCA1 270908Z 16008KT 19/19 A2981 RMK A01 T01920189  RH  098%=      5-min Rain = 0
KCA1 270909Z 15009KT 19/19 A2981 RMK A01 T01920189  RH  099%=      5-min Rain = 0
KCA1 270910Z 15009KT 19/19 A2981 RMK A01 T01920190  RH  099%=      5-min Rain = 0
KCA1 270911Z 16008KT 19/19 A2981 RMK A01 T01920189  RH  098%=      5-min Rain = 0
KCA1 270912Z 16010KT 19/19 A2981 RMK A01 T01910189  RH  098%=      5-min Rain = 0
KCA1 270913Z 16009KT 19/19 A2981 RMK A01 T01920189  RH  099%=      5-min Rain = 0
KCA1 270914Z 15008KT 19/19 A2981 RMK A01 T01920189  RH  098%=      5-min Rain = 0
KCA1 270915Z 15008KT 19/19 A2981 RMK A01 T01920189  RH  098%=      5-min Rain = 0
KCA1 270916Z 15008KT 19/19 A2981 RMK A01 T01910188  RH  098%=      5-min Rain = 0
KCA1 270917Z 15008KT 19/19 A2981 RMK A01 T01910188  RH  098%=      5-min Rain = 0
KCA1 270918Z 15008KT 19/19 A2981 RMK A01 T01900188  RH  099%=      5-min Rain = 0
KCA1 270919Z 15009KT 19/19 A2981 RMK A01 T01900188  RH  099%=      5-min Rain = 0
KCA1 270920Z 15009KT 19/19 A2981 RMK A01 T01900188  RH  099%=      5-min Rain = 0
KCA1 270921Z 16008KT 19/19 A2981 RMK A01 T01900188  RH  099%=      5-min Rain = 0
KCA1 270922Z 15009KT 19/19 A2981 RMK A01 T01890188  RH  099%=      5-min Rain = 0
KCA1 270923Z 15008KT 19/19 A2981 RMK A01 T01890189  RH  099%=      5-min Rain = 0
KCA1 270924Z 15008KT 19/19 A2981 RMK A01 T01890188  RH  099%=      5-min Rain = 0
KCA1 270925Z 15009KT 19/19 A2981 RMK A01 T01890188  RH  099%=      5-min Rain = 0
KCA1 270926Z 15009KT 19/19 A2981 RMK A01 T01900189  RH  099%=      5-min Rain = 0
KCA1 270927Z 15009KT 19/19 A2981 RMK A01 T01890189  RH  100%=      5-min Rain = 0
KCA1 270928Z 15009KT 19/19 A2981 RMK A01 T01890189  RH  099%=      5-min Rain = 0
KCA1 270929Z 15009KT 19/19 A2981 RMK A01 T01900189  RH  099%=      5-min Rain = 0
KCA1 270930Z 15008KT 19/19 A2981 RMK A01 T01900189  RH  099%=      5-min Rain = 0
KCA1 270931Z 15008KT 19/19 A2981 RMK A01 T01900188  RH  099%=      5-min Rain = 0
KCA1 270932Z 15008KT 19/19 A2981 RMK A01 T01900188  RH  099%=      5-min Rain = 0
KCA1 270933Z 15008KT 19/19 A2981 RMK A01 T01900188  RH  099%=      5-min Rain = 0
KCA1 270934Z 15009KT 19/19 A2981 RMK A01 T01900188  RH  099%=      5-min Rain = 0
KCA1 270935Z 15008KT 19/19 A2981 RMK A01 T01900188  RH  099%=      5-min Rain = 0
KCA1 270936Z 14008KT 19/19 A2981 RMK A01 T01900189  RH  099%=      5-min Rain = 0
KCA1 270937Z 14008KT 19/19 A2981 RMK A01 T01900188  RH  099%=      5-min Rain = 0
KCA1 270938Z 14007KT 19/19 A2981 RMK A01 T01900188  RH  099%=      5-min Rain = 0
KCA1 270939Z 14008KT 19/19 A2981 RMK A01 T01900188  RH  099%=      5-min Rain = 0
KCA1 270940Z 14009KT 19/19 A2981 RMK A01 T01900188  RH  099%=      5-min Rain = 0
KCA1 270941Z 14009KT 19/19 A2981 RMK A01 T01900188  RH  099%=      5-min Rain = 0
KCA1 270942Z 14008KT 19/19 A2981 RMK A01 T01910188  RH  099%=      5-min Rain = 0
KCA1 270943Z 14009KT 19/19 A2981 RMK A01 T01910188  RH  098%=      5-min Rain = 0
KCA1 270944Z 14007KT 19/19 A2981 RMK A01 T01910188  RH  098%=      5-min Rain = 0
KCA1 270945Z 14008KT 19/19 A2981 RMK A01 T01910188  RH  098%=      5-min Rain = 0
KCA1 270946Z 14008KT 19/19 A2981 RMK A01 T01910188  RH  098%=      5-min Rain = 0
KCA1 270947Z 14008KT 19/19 A2981 RMK A01 T01910188  RH  098%=      5-min Rain = 0
KCA1 270948Z 14008KT 19/19 A2981 RMK A01 T01910188  RH  098%=      5-min Rain = 0
KCA1 270949Z 14008KT 19/19 A2981 RMK A01 T01900188  RH  098%=      5-min Rain = 0
KCA1 270950Z 13008KT 19/19 A2981 RMK A01 T01900188  RH  098%=      5-min Rain = 0
KCA1 270951Z 14007KT 19/19 A2981 RMK A01 T01900188  RH  098%=      5-min Rain = 0
KCA1 270952Z 13008KT 19/19 A2981 RMK A01 T01900187  RH  098%=      5-min Rain = 0
KCA1 270953Z 13009KT 19/19 A2981 RMK A01 T01900187  RH  098%=      5-min Rain = 0
KCA1 270954Z 14007KT 19/19 A2981 RMK A01 T01900188  RH  098%=      5-min Rain = 0
KCA1 270955Z 14008KT 19/19 A2981 RMK A01 T01900187  RH  098%=      5-min Rain = 0
KCA1 270956Z 14007KT 19/19 A2981 RMK A01 T01900187  RH  098%=      5-min Rain = 0
KCA1 270957Z 13008KT 19/19 A2981 RMK A01 T01900187  RH  098%=      5-min Rain = 0
KCA1 270958Z 14007KT 19/19 A2981 RMK A01 T01900187  RH  098%=      5-min Rain = 0
KCA1 270959Z 13006KT 19/19 A2981 RMK A01 T01900187  RH  098%=      5-min Rain = 0
KCA1 271000Z 14008KT 19/19 A2981 RMK A01 T01890187  RH  098%=      5-min Rain = 0
KCA1 271001Z 14008KT 19/19 A2981 RMK A01 T01890187  RH  098%=      5-min Rain = 0
KCA1 271002Z 13006KT 19/19 A2981 RMK A01 T01890187  RH  099%=      5-min Rain = 0
KCA1 271003Z 14007KT 19/19 A2981 RMK A01 T01890187  RH  099%=      5-min Rain = 0
KCA1 271004Z 13006KT 19/19 A2981 RMK A01 T01890187  RH  099%=      5-min Rain = 0
KCA1 271005Z 14008KT 19/19 A2981 RMK A01 T01890187  RH  099%=      5-min Rain = 0
KCA1 271006Z 14006KT 19/19 A2981 RMK A01 T01890187  RH  099%=      5-min Rain = 0
KCA1 271007Z 12007KT 19/19 A2981 RMK A01 T01890187  RH  099%=      5-min Rain = 0
KCA1 271008Z 14007KT 19/19 A2981 RMK A01 T01890187  RH  099%=      5-min Rain = 0
KCA1 271009Z 13006KT 19/19 A2981 RMK A01 T01890187  RH  098%=      5-min Rain = 0
KCA1 271010Z 14005KT 19/19 A2981 RMK A01 T01890187  RH  098%=      5-min Rain = 0
KCA1 271011Z 14006KT 19/19 A2981 RMK A01 T01890186  RH  098%=      5-min Rain = 0
KCA1 271012Z 14007KT 19/19 A2981 RMK A01 T01890186  RH  098%=      5-min Rain = 0
KCA1 271013Z 12006KT 19/19 A2981 RMK A01 T01890187  RH  099%=      5-min Rain = 0
KCA1 271014Z 13006KT 19/19 A2981 RMK A01 T01890187  RH  099%=      5-min Rain = 0
KCA1 271015Z 13005KT 19/19 A2981 RMK A01 T01890187  RH  098%=      5-min Rain = 0
KCA1 271016Z 12005KT 19/19 A2981 RMK A01 T01890186  RH  098%=      5-min Rain = 0
KCA1 271017Z 14007KT 19/19 A2981 RMK A01 T01890187  RH  098%=      5-min Rain = 0
KCA1 271018Z 14007KT 19/19 A2981 RMK A01 T01900187  RH  098%=      5-min Rain = 0
KCA1 271019Z 13007KT 19/19 A2981 RMK A01 T01900187  RH  098%=      5-min Rain = 0
KCA1 271020Z 13006KT 19/19 A2981 RMK A01 T01910187  RH  098%=      5-min Rain = 0
KCA1 271021Z 13005KT 19/19 A2981 RMK A01 T01910187  RH  098%=      5-min Rain = 0
KCA1 271022Z 14006KT 19/19 A2981 RMK A01 T01900186  RH  097%=      5-min Rain = 0
KCA1 271023Z 15006KT 19/19 A2981 RMK A01 T01900186  RH  098%=      5-min Rain = 0
KCA1 271024Z 14005KT 19/19 A2981 RMK A01 T01900187  RH  098%=      5-min Rain = 0
KCA1 271025Z 14005KT 19/19 A2981 RMK A01 T01900187  RH  098%=      5-min Rain = 0
KCA1 271026Z 13007KT 19/19 A2981 RMK A01 T01900186  RH  098%=      5-min Rain = 0
KCA1 271027Z 15008KT 19/19 A2981 RMK A01 T01890186  RH  098%=      5-min Rain = 0
KCA1 271028Z 15005KT 19/19 A2981 RMK A01 T01890186  RH  098%=      5-min Rain = 0
KCA1 271029Z 15006KT 19/19 A2981 RMK A01 T01900186  RH  098%=      5-min Rain = 0
KCA1 271030Z 15006KT 19/19 A2981 RMK A01 T01890186  RH  098%=      5-min Rain = 0
KCA1 271031Z 14005KT 19/19 A2981 RMK A01 T01890186  RH  098%=      5-min Rain = 0
KCA1 271032Z 15008KT 19/19 A2981 RMK A01 T01890187  RH  098%=      5-min Rain = 0
KCA1 271033Z 15006KT 19/19 A2981 RMK A01 T01890187  RH  098%=      5-min Rain = 0
KCA1 271034Z 16006KT 19/19 A2981 RMK A01 T01890187  RH  098%=      5-min Rain = 0
KCA1 271035Z 14007KT 19/19 A2981 RMK A01 T01900187  RH  098%=      5-min Rain = 0
KCA1 271036Z 14006KT 19/19 A2981 RMK A01 T01900186  RH  098%=      5-min Rain = 0
KCA1 271037Z 15006KT 19/19 A2981 RMK A01 T01900187  RH  098%=      5-min Rain = 0
KCA1 271038Z 16008KT 19/19 A2981 RMK A01 T01900187  RH  098%=      5-min Rain = 0
KCA1 271039Z 15007KT 19/19 A2981 RMK A01 T01900186  RH  098%=      5-min Rain = 0
KCA1 271040Z 15005KT 19/19 A2981 RMK A01 T01890186  RH  098%=      5-min Rain = 0
KCA1 271041Z 16006KT 19/19 A2981 RMK A01 T01890186  RH  098%=      5-min Rain = 0
KCA1 271042Z 16008KT 19/19 A2981 RMK A01 T01880185  RH  098%=      5-min Rain = 0
KCA1 271043Z 17007KT 19/19 A2981 RMK A01 T01880187  RH  099%=      5-min Rain = 0
KCA1 271044Z 16007KT 19/19 A2981 RMK A01 T01890187  RH  099%=      5-min Rain = 0
KCA1 271045Z 16010KT 19/19 A2981 RMK A01 T01890187  RH  099%=      5-min Rain = 0
KCA1 271046Z 16010KT 19/19 A2981 RMK A01 T01890187  RH  099%=      5-min Rain = 0
KCA1 271047Z 15007KT 19/19 A2981 RMK A01 T01900187  RH  098%=      5-min Rain = 0
KCA1 271048Z 17007KT 19/19 A2981 RMK A01 T01900187  RH  098%=      5-min Rain = 0
KCA1 271049Z 15008KT 19/19 A2981 RMK A01 T01900187  RH  098%=      5-min Rain = 0
KCA1 271050Z 16006KT 19/19 A2981 RMK A01 T01900187  RH  098%=      5-min Rain = 0
KCA1 271051Z 17007KT 19/19 A2981 RMK A01 T01900187  RH  098%=      5-min Rain = 0
KCA1 271052Z 17009KT 19/19 A2981 RMK A01 T01900187  RH  098%=      5-min Rain = 0
KCA1 271053Z 16010KT 19/19 A2981 RMK A01 T01890187  RH  098%=      5-min Rain = 0
KCA1 271054Z 16012KT 19/19 A2981 RMK A01 T01890187  RH  098%=      5-min Rain = 0
KCA1 271055Z 16008KT 19/19 A2981 RMK A01 T01900187  RH  098%=      5-min Rain = 0
KCA1 271056Z 16008KT 19/19 A2981 RMK A01 T01900187  RH  098%=      5-min Rain = 0
KCA1 271057Z 15008KT 19/19 A2981 RMK A01 T01900186  RH  098%=      5-min Rain = 0
KCA1 271058Z 16010KT 19/19 A2981 RMK A01 T01890186  RH  098%=      5-min Rain = 0
KCA1 271059Z 16008KT 19/19 A2981 RMK A01 T01890186  RH  099%=      5-min Rain = 0
KCA1 271100Z 15008KT 19/19 A2981 RMK A01 T01890186  RH  099%=      5-min Rain = 0
KCA1 271101Z 16008KT 19/19 A2981 RMK A01 T01880186  RH  099%=      5-min Rain = 0
KCA1 271102Z 16007KT 19/19 A2981 RMK A01 T01880186  RH  099%=      5-min Rain = 0
KCA1 271103Z 17006KT 19/19 A2981 RMK A01 T01880186  RH  099%=      5-min Rain = 0
KCA1 271104Z 17008KT 19/19 A2981 RMK A01 T01870186  RH  099%=      5-min Rain = 0
KCA1 271105Z 15008G14KT 19/19 A2981 RMK A01 T01870185  RH  099%=      5-min Rain = 0
KCA1 271106Z 16011KT 19/19 A2981 RMK A01 T01870186  RH  100%=      5-min Rain = 0
KCA1 271107Z 16010KT 19/19 A2981 RMK A01 T01870187  RH  100%=      5-min Rain = 0
KCA1 271108Z 16010KT 19/19 A2981 RMK A01 T01870186  RH  100%=      5-min Rain = 0
KCA1 271109Z 16011KT 19/19 A2981 RMK A01 T01860186  RH  100%=      5-min Rain = 0
KCA1 271110Z 15009KT 19/19 A2981 RMK A01 T01870187  RH  100%=      5-min Rain = 0
KCA1 271111Z 16011KT 19/19 A2981 RMK A01 T01870187  RH  100%=      5-min Rain = 0
KCA1 271112Z 17010KT 19/19 A2981 RMK A01 T01870187  RH  100%=      5-min Rain = 0
KCA1 271113Z 16010KT 19/19 A2981 RMK A01 T01870186  RH  099%=      5-min Rain = 0
KCA1 271114Z 16011KT 19/19 A2981 RMK A01 T01870186  RH  099%=      5-min Rain = 0
KCA1 271115Z 15012KT 19/19 A2981 RMK A01 T01880187  RH  099%=      5-min Rain = 0
KCA1 271116Z 16011KT 19/19 A2981 RMK A01 T01870186  RH  099%=      5-min Rain = 0
KCA1 271117Z 16010KT 19/19 A2981 RMK A01 T01870186  RH  099%=      5-min Rain = 0
KCA1 271118Z 16011KT 19/19 A2981 RMK A01 T01870186  RH  099%=      5-min Rain = 0
KCA1 271119Z 16011KT 19/19 A2981 RMK A01 T01880187  RH  099%=      5-min Rain = 0
KCA1 271120Z 16014KT 19/19 A2981 RMK A01 T01870186  RH  099%=      5-min Rain = 0
KCA1 271121Z 16011KT 19/19 A2981 RMK A01 T01870186  RH  099%=      5-min Rain = 0
KCA1 271122Z 16010KT 19/19 A2981 RMK A01 T01880187  RH  099%=      5-min Rain = 0
KCA1 271123Z 17013KT 19/19 A2981 RMK A01 T01880186  RH  099%=      5-min Rain = 0
KCA1 271124Z 16010KT 19/19 A2981 RMK A01 T01880187  RH  099%=      5-min Rain = 0
KCA1 271125Z 16009KT 19/19 A2981 RMK A01 T01880187  RH  099%=      5-min Rain = 0
KCA1 271126Z 15011KT 19/19 A2981 RMK A01 T01890187  RH  099%=      5-min Rain = 0
KCA1 271127Z 15010KT 19/19 A2981 RMK A01 T01880187  RH  099%=      5-min Rain = 0
KCA1 271128Z 16010KT 19/19 A2981 RMK A01 T01880186  RH  099%=      5-min Rain = 0
KCA1 271129Z 15010KT 19/19 A2981 RMK A01 T01880186  RH  099%=      5-min Rain = 0
KCA1 271130Z 15009KT 19/19 A2981 RMK A01 T01880187  RH  099%=      5-min Rain = 0
KCA1 271131Z 16009KT 19/19 A2981 RMK A01 T01870186  RH  099%=      5-min Rain = 0
KCA1 271132Z 15011KT 19/19 A2981 RMK A01 T01870186  RH  100%=      5-min Rain = 0
KCA1 271133Z 16012KT 19/19 A2981 RMK A01 T01870187  RH  100%=      5-min Rain = 0
KCA1 271134Z 16009KT 19/19 A2981 RMK A01 T01870187  RH  100%=      5-min Rain = 0
KCA1 271135Z 16011KT 19/19 A2981 RMK A01 T01870187  RH  100%=      5-min Rain = 0
KCA1 271136Z 17011KT 19/19 A2981 RMK A01 T01880187  RH  100%=      5-min Rain = 0
KCA1 271137Z 16011KT 19/19 A2981 RMK A01 T01870187  RH  100%=      5-min Rain = 0
KCA1 271138Z 17011KT 19/19 A2981 RMK A01 T01880187  RH  099%=      5-min Rain = 0
KCA1 271139Z 17010KT 19/19 A2981 RMK A01 T01880187  RH  099%=      5-min Rain = 0
KCA1 271140Z 16010KT 19/19 A2981 RMK A01 T01880187  RH  099%=      5-min Rain = 0
KCA1 271141Z 16012KT 19/19 A2981 RMK A01 T01870187  RH  099%=      5-min Rain = 0
KCA1 271142Z 17012KT 19/19 A2981 RMK A01 T01870187  RH  100%=      5-min Rain = 0
KCA1 271143Z 17010KT 19/19 A2981 RMK A01 T01880187  RH  099%=      5-min Rain = 0
KCA1 271144Z 17010KT 19/19 A2981 RMK A01 T01880187  RH  099%=      5-min Rain = 0
KCA1 271145Z 17011KT 19/19 A2981 RMK A01 T01880187  RH  099%=      5-min Rain = 0
KCA1 271146Z 17012KT 19/19 A2981 RMK A01 T01880187  RH  099%=      5-min Rain = 0
KCA1 271147Z 18012KT 19/19 A2981 RMK A01 T01880187  RH  099%=      5-min Rain = 0
KCA1 271148Z 17012KT 19/19 A2981 RMK A01 T01880187  RH  099%=      5-min Rain = 0
KCA1 271149Z 17008KT 19/19 A2981 RMK A01 T01880187  RH  099%=      5-min Rain = 0
KCA1 271150Z 17009KT 19/19 A2981 RMK A01 T01880187  RH  099%=      5-min Rain = 0
KCA1 271151Z 17009KT 19/19 A2981 RMK A01 T01880187  RH  099%=      5-min Rain = 0
KCA1 271152Z 17010KT 19/19 A2981 RMK A01 T01880187  RH  100%=      5-min Rain = 0
KCA1 271153Z 17008KT 19/19 A2981 RMK A01 T01870187  RH  100%=      5-min Rain = 0
KCA1 271154Z 18008KT 19/19 A2981 RMK A01 T01880187  RH  100%=      5-min Rain = 0
KCA1 271155Z 17010KT 19/19 A2981 RMK A01 T01870187  RH  100%=      5-min Rain = 0
KCA1 271156Z 17011KT 19/19 A2981 RMK A01 T01870187  RH  100%=      5-min Rain = 0
KCA1 271157Z 18011KT 19/19 A2981 RMK A01 T01870187  RH  100%=      5-min Rain = 0
KCA1 271158Z 18012KT 19/19 A2981 RMK A01 T01870187  RH  100%=      5-min Rain = 0
KCA1 271159Z 17010KT 19/19 A2981 RMK A01 T01880188  RH  100%=      5-min Rain = 0
KCA1 271200Z 17011KT 19/19 A2981 RMK A01 T01880187  RH  100%=      5-min Rain = 0
KCA1 271201Z 17011KT 19/19 A2981 RMK A01 T01870187  RH  100%=      5-min Rain = 0
KCA1 271202Z 17011KT 19/19 A2981 RMK A01 T01880187  RH  100%=      5-min Rain = 0
KCA1 271203Z 18009KT 19/19 A2981 RMK A01 T01880187  RH  100%=      5-min Rain = 0
KCA1 271204Z 18009KT 19/19 A2981 RMK A01 T01870187  RH  100%=      5-min Rain = 0
KCA1 271205Z 18009KT 19/19 A2981 RMK A01 T01880188  RH  100%=      5-min Rain = 0
KCA1 271206Z 17009KT 19/19 A2981 RMK A01 T01880188  RH  100%=      5-min Rain = 0
KCA1 271207Z 18010KT 19/19 A2981 RMK A01 T01880188  RH  100%=      5-min Rain = 0
KCA1 271208Z 17011KT 19/19 A2981 RMK A01 T01880188  RH  100%=      5-min Rain = 0
KCA1 271209Z 17010KT 19/19 A2981 RMK A01 T01880188  RH  100%=      5-min Rain = 0
KCA1 271210Z 17011KT 19/19 A2981 RMK A01 T01870188  RH  100%=      5-min Rain = 0
KCA1 271211Z 17011KT 19/19 A2981 RMK A01 T01870188  RH  100%=      5-min Rain = 0
KCA1 271212Z 17011KT 19/19 A2981 RMK A01 T01870188  RH  100%=      5-min Rain = 0
KCA1 271213Z 17010KT 19/19 A2981 RMK A01 T01870188  RH  100%=      5-min Rain = 0
KCA1 271214Z 17010KT 19/19 A2981 RMK A01 T01870187  RH  100%=      5-min Rain = 0
KCA1 271215Z 17011KT 19/19 A2981 RMK A01 T01870188  RH  100%=      5-min Rain = 0
KCA1 271216Z 17011KT 19/19 A2981 RMK A01 T01870188  RH  100%=      5-min Rain = 0
KCA1 271217Z 18010KT 19/19 A2981 RMK A01 T01880188  RH  100%=      5-min Rain = 0
KCA1 271218Z 17009KT 19/19 A2982 RMK A01 T01880188  RH  100%=      5-min Rain = 0
KCA1 271219Z 17009KT 19/19 A2982 RMK A01 T01880188  RH  100%=      5-min Rain = 0
KCA1 271220Z 17012KT 19/19 A2982 RMK A01 T01880188  RH  100%=      5-min Rain = 0
KCA1 271221Z 17012KT 19/19 A2982 RMK A01 T01880188  RH  100%=      5-min Rain = 0
KCA1 271222Z 18010KT 19/19 A2982 RMK A01 T01890189  RH  100%=      5-min Rain = 0
KCA1 271223Z 17010KT 19/19 A2982 RMK A01 T01880188  RH  100%=      5-min Rain = 0
KCA1 271224Z 17009KT 19/19 A2982 RMK A01 T01890189  RH  100%=      5-min Rain = 0
KCA1 271225Z 17010KT 19/19 A2982 RMK A01 T01890188  RH  100%=      5-min Rain = 0
KCA1 271226Z 17011KT 19/19 A2982 RMK A01 T01890189  RH  100%=      5-min Rain = 0
KCA1 271227Z 17008KT 19/19 A2982 RMK A01 T01890188  RH  100%=      5-min Rain = 0
KCA1 271228Z 17009KT 19/19 A2982 RMK A01 T01890189  RH  100%=      5-min Rain = 0
KCA1 271229Z 18013KT 19/19 A2982 RMK A01 T01890189  RH  100%=      5-min Rain = 0
KCA1 271230Z 18014KT 19/19 A2982 RMK A01 T01890189  RH  100%=      5-min Rain = 0
KCA1 271231Z 18009KT 19/19 A2982 RMK A01 T01890189  RH  100%=      5-min Rain = 0
KCA1 271232Z 16008KT 19/19 A2982 RMK A01 T01900189  RH  099%=      5-min Rain = 0
KCA1 271233Z 17008KT 19/19 A2982 RMK A01 T01900189  RH  099%=      5-min Rain = 0
KCA1 271234Z 17008KT 19/19 A2982 RMK A01 T01900189  RH  099%=      5-min Rain = 0
KCA1 271235Z 17010KT 19/19 A2982 RMK A01 T01900189  RH  100%=      5-min Rain = 0
KCA1 271236Z 17009KT 19/19 A2982 RMK A01 T01900189  RH  100%=      5-min Rain = 0
KCA1 271237Z 18009G14KT 19/19 A2982 RMK A01 T01900189  RH  100%=      5-min Rain = 0
KCA1 271238Z 18010KT 19/19 A2982 RMK A01 T01900190  RH  100%=      5-min Rain = 0
KCA1 271239Z 19009KT 19/19 A2982 RMK A01 T01900190  RH  100%=      5-min Rain = 0
KCA1 271240Z 17009KT 19/19 A2982 RMK A01 T01900190  RH  100%=      5-min Rain = 0
KCA1 271241Z 18010KT 19/19 A2982 RMK A01 T01900190  RH  100%=      5-min Rain = 0
KCA1 271242Z 18011KT 19/19 A2982 RMK A01 T01900189  RH  100%=      5-min Rain = 0
KCA1 271243Z 17009KT 19/19 A2982 RMK A01 T01900189  RH  100%=      5-min Rain = 0
KCA1 271244Z 16007KT 19/19 A2982 RMK A01 T01900190  RH  100%=      5-min Rain = 0
KCA1 271245Z 17011KT 19/19 A2982 RMK A01 T01900190  RH  100%=      5-min Rain = 0
KCA1 271246Z 17010KT 19/19 A2982 RMK A01 T01900190  RH  099%=      5-min Rain = 0
KCA1 271247Z 17008KT 19/19 A2982 RMK A01 T01900190  RH  099%=      5-min Rain = 0
KCA1 271248Z 17008KT 19/19 A2982 RMK A01 T01900190  RH  100%=      5-min Rain = 0
KCA1 271249Z 17008KT 19/19 A2982 RMK A01 T01900190  RH  100%=      5-min Rain = 0
KCA1 271250Z 17011KT 19/19 A2982 RMK A01 T01900190  RH  100%=      5-min Rain = 0
KCA1 271251Z 18012KT 19/19 A2982 RMK A01 T01900190  RH  100%=      5-min Rain = 0
KCA1 271252Z 17011KT 19/19 A2982 RMK A01 T01910191  RH  100%=      5-min Rain = 0
KCA1 271253Z 17011KT 19/19 A2982 RMK A01 T01910190  RH  100%=      5-min Rain = 0
KCA1 271254Z 17009KT 19/19 A2982 RMK A01 T01900190  RH  100%=      5-min Rain = 0
KCA1 271255Z 17009KT 19/19 A2982 RMK A01 T01910191  RH  100%=      5-min Rain = 0
KCA1 271256Z 18011KT 19/19 A2982 RMK A01 T01910191  RH  100%=      5-min Rain = 0
KCA1 271257Z 19010KT 19/19 A2982 RMK A01 T01910190  RH  099%=      5-min Rain = 0
KCA1 271258Z 19010KT 19/19 A2982 RMK A01 T01910190  RH  099%=      5-min Rain = 0
KCA1 271259Z 18009KT 19/19 A2982 RMK A01 T01910190  RH  099%=      5-min Rain = 0
KCA1 271300Z 17009KT 19/19 A2982 RMK A01 T01910190  RH  099%=      5-min Rain = 0
KCA1 271301Z 17008KT 19/19 A2982 RMK A01 T01910191  RH  100%=      5-min Rain = 0
KCA1 271302Z 17010KT 19/19 A2982 RMK A01 T01920191  RH  100%=      5-min Rain = 0
KCA1 271303Z 18010KT 19/19 A2982 RMK A01 T01920191  RH  100%=      5-min Rain = 0
KCA1 271304Z 18011KT 19/19 A2982 RMK A01 T01910191  RH  100%=      5-min Rain = 0
KCA1 271305Z 17008KT 19/19 A2982 RMK A01 T01920191  RH  099%=      5-min Rain = 0
KCA1 271306Z 17009KT 19/19 A2982 RMK A01 T01920191  RH  099%=      5-min Rain = 0
KCA1 271307Z 17009KT 19/19 A2982 RMK A01 T01920191  RH  099%=      5-min Rain = 0
KCA1 271308Z 18009KT 19/19 A2982 RMK A01 T01920192  RH  100%=      5-min Rain = 0
KCA1 271309Z 18009KT 19/19 A2982 RMK A01 T01920192  RH  100%=      5-min Rain = 0
KCA1 271310Z 17010KT 19/19 A2982 RMK A01 T01920192  RH  100%=      5-min Rain = 0
KCA1 271311Z 17011KT 19/19 A2982 RMK A01 T01920191  RH  099%=      5-min Rain = 0
KCA1 271312Z 18012KT 19/19 A2982 RMK A01 T01930191  RH  099%=      5-min Rain = 0
KCA1 271313Z 18009KT 19/19 A2982 RMK A01 T01930191  RH  099%=      5-min Rain = 0
KCA1 271314Z 18008KT 19/19 A2982 RMK A01 T01930191  RH  099%=      5-min Rain = 0
KCA1 271315Z 18010KT 19/19 A2982 RMK A01 T01930192  RH  099%=      5-min Rain = 0
KCA1 271316Z 19009KT 19/19 A2982 RMK A01 T01930191  RH  099%=      5-min Rain = 0
KCA1 271317Z 17009KT 19/19 A2982 RMK A01 T01930192  RH  099%=      5-min Rain = 0
KCA1 271318Z 16009KT 19/19 A2982 RMK A01 T01930192  RH  099%=      5-min Rain = 0
KCA1 271319Z 17008KT 19/19 A2982 RMK A01 T01930192  RH  099%=      5-min Rain = 0
KCA1 271320Z 17010KT 19/19 A2982 RMK A01 T01930192  RH  099%=      5-min Rain = 0
KCA1 271321Z 18011KT 19/19 A2982 RMK A01 T01940193  RH  099%=      5-min Rain = 0
KCA1 271322Z 18011KT 19/19 A2982 RMK A01 T01930192  RH  099%=      5-min Rain = 0
KCA1 271323Z 17009KT 19/19 A2982 RMK A01 T01930192  RH  099%=      5-min Rain = 0
KCA1 271324Z 16011KT 19/19 A2982 RMK A01 T01940192  RH  099%=      5-min Rain = 0
KCA1 271325Z 17011KT 19/19 A2982 RMK A01 T01940192  RH  099%=      5-min Rain = 0
KCA1 271326Z 18012KT 19/19 A2982 RMK A01 T01940192  RH  099%=      5-min Rain = 0
KCA1 271327Z 18011KT 19/19 A2982 RMK A01 T01940192  RH  098%=      5-min Rain = 0
KCA1 271328Z 18011KT 20/19 A2982 RMK A01 T01950192  RH  098%=      5-min Rain = 0
KCA1 271329Z 17011KT 20/19 A2982 RMK A01 T01950192  RH  098%=      5-min Rain = 0
KCA1 271330Z 18010KT 20/19 A2982 RMK A01 T01950192  RH  098%=      5-min Rain = 0
KCA1 271331Z 17011KT 20/19 A2982 RMK A01 T01950192  RH  098%=      5-min Rain = 0
KCA1 271332Z 17010KT 20/19 A2982 RMK A01 T01950192  RH  098%=      5-min Rain = 0
KCA1 271333Z 18010KT 20/19 A2982 RMK A01 T01960193  RH  098%=      5-min Rain = 0
KCA1 271334Z 18011KT 20/19 A2982 RMK A01 T01960193  RH  098%=      5-min Rain = 0
KCA1 271335Z 18010KT 20/19 A2982 RMK A01 T01960193  RH  098%=      5-min Rain = 0
KCA1 271336Z 18008KT 20/19 A2982 RMK A01 T01960193  RH  098%=      5-min Rain = 0
KCA1 271337Z 18009KT 20/19 A2982 RMK A01 T01970194  RH  098%=      5-min Rain = 0
KCA1 271338Z 17010KT 20/19 A2982 RMK A01 T01970193  RH  098%=      5-min Rain = 0
KCA1 271339Z 18010KT 20/19 A2982 RMK A01 T01970193  RH  098%=      5-min Rain = 0
KCA1 271340Z 18009KT 20/19 A2982 RMK A01 T01970193  RH  098%=      5-min Rain = 0
KCA1 271341Z 17009KT 20/19 A2983 RMK A01 T01970193  RH  098%=      5-min Rain = 0
KCA1 271342Z 18010KT 20/19 A2983 RMK A01 T01970193  RH  098%=      5-min Rain = 0
KCA1 271343Z 17010KT 20/19 A2983 RMK A01 T01970194  RH  098%=      5-min Rain = 0
KCA1 271344Z 18010KT 20/19 A2983 RMK A01 T01970194  RH  098%=      5-min Rain = 0
KCA1 271345Z 17009KT 20/19 A2983 RMK A01 T01970194  RH  098%=      5-min Rain = 0
KCA1 271346Z 18008KT 20/19 A2983 RMK A01 T01970194  RH  098%=      5-min Rain = 0
KCA1 271347Z 18008KT 20/19 A2983 RMK A01 T01970194  RH  098%=      5-min Rain = 0
KCA1 271348Z 18006KT 20/19 A2983 RMK A01 T01970194  RH  098%=      5-min Rain = 0
KCA1 271349Z 17008KT 20/20 A2983 RMK A01 T01980195  RH  098%=      5-min Rain = 0
KCA1 271350Z 18009KT 20/20 A2983 RMK A01 T01980195  RH  098%=      5-min Rain = 0
KCA1 271351Z 19006KT 20/19 A2982 RMK A01 T01980194  RH  097%=      5-min Rain = 0
KCA1 271352Z 18008KT 20/19 A2982 RMK A01 T01980193  RH  097%=      5-min Rain = 0
KCA1 271353Z 17010KT 20/19 A2982 RMK A01 T01980193  RH  097%=      5-min Rain = 0
KCA1 271354Z 18010KT 20/19 A2982 RMK A01 T01980193  RH  097%=      5-min Rain = 0
KCA1 271355Z 17008KT 20/19 A2982 RMK A01 T01980193  RH  097%=      5-min Rain = 0
KCA1 271356Z 16007KT 20/19 A2982 RMK A01 T01990194  RH  097%=      5-min Rain = 0
KCA1 271357Z 17007KT 20/20 A2982 RMK A01 T01990195  RH  098%=      5-min Rain = 0
KCA1 271358Z 17008KT 20/20 A2982 RMK A01 T01990195  RH  098%=      5-min Rain = 0
KCA1 271359Z 18007KT 20/20 A2982 RMK A01 T02000195  RH  097%=      5-min Rain = 0
KCA1 271400Z 18009KT 20/20 A2982 RMK A01 T02000196  RH  097%=      5-min Rain = 0
KCA1 271401Z 18010KT 20/20 A2982 RMK A01 T02010196  RH  097%=      5-min Rain = 0
KCA1 271402Z 19009KT 20/19 A2982 RMK A01 T02000194  RH  096%=      5-min Rain = 0
KCA1 271403Z 18009KT 20/19 A2982 RMK A01 T02000194  RH  096%=      5-min Rain = 0
KCA1 271404Z 18009KT 20/19 A2982 RMK A01 T02000194  RH  096%=      5-min Rain = 0
KCA1 271405Z 18010KT 20/19 A2982 RMK A01 T02000194  RH  096%=      5-min Rain = 0
KCA1 271406Z 17011KT 20/19 A2982 RMK A01 T02000194  RH  096%=      5-min Rain = 0
KCA1 271407Z 18013KT 20/19 A2982 RMK A01 T02000194  RH  096%=      5-min Rain = 0
KCA1 271408Z 19012KT 20/19 A2982 RMK A01 T02000193  RH  096%=      5-min Rain = 0
KCA1 271409Z 19012KT 20/19 A2982 RMK A01 T02000193  RH  096%=      5-min Rain = 0
KCA1 271410Z 19010KT 20/19 A2982 RMK A01 T02000193  RH  096%=      5-min Rain = 0
KCA1 271411Z 18009KT 20/19 A2982 RMK A01 T02010193  RH  096%=      5-min Rain = 0
KCA1 271412Z 18010KT 20/20 A2982 RMK A01 T02010195  RH  096%=      5-min Rain = 0
KCA1 271413Z 19013KT 20/20 A2982 RMK A01 T02010195  RH  096%=      5-min Rain = 0
KCA1 271414Z 19012KT 20/19 A2982 RMK A01 T02010193  RH  095%=      5-min Rain = 0
KCA1 271415Z 18012KT 20/19 A2982 RMK A01 T02010193  RH  095%=      5-min Rain = 0
KCA1 271416Z 18012KT 20/19 A2982 RMK A01 T02010194  RH  095%=      5-min Rain = 0
KCA1 271417Z 19012KT 20/19 A2982 RMK A01 T02010194  RH  096%=      5-min Rain = 0
KCA1 271418Z 18012KT 20/19 A2982 RMK A01 T02020194  RH  095%=      5-min Rain = 0
KCA1 271419Z 18012KT 20/20 A2982 RMK A01 T02020195  RH  095%=      5-min Rain = 0
KCA1 271420Z 18011KT 20/20 A2982 RMK A01 T02030195  RH  095%=      5-min Rain = 0
KCA1 271421Z 19009KT 20/20 A2982 RMK A01 T02030196  RH  095%=      5-min Rain = 0
KCA1 271422Z 19010KT 20/20 A2982 RMK A01 T02040196  RH  095%=      5-min Rain = 0
KCA1 271423Z 19009KT 21/20 A2982 RMK A01 T02050196  RH  095%=      5-min Rain = 0
KCA1 271424Z 19012KT 21/20 A2982 RMK A01 T02050196  RH  095%=      5-min Rain = 0
KCA1 271425Z 18010KT 21/20 A2982 RMK A01 T02050196  RH  095%=      5-min Rain = 0
KCA1 271426Z 18012KT 20/20 A2982 RMK A01 T02040196  RH  095%=      5-min Rain = 0
KCA1 271427Z 18011KT 20/20 A2982 RMK A01 T02040196  RH  095%=      5-min Rain = 0
KCA1 271428Z 18013KT 20/20 A2982 RMK A01 T02040195  RH  094%=      5-min Rain = 0
KCA1 271429Z 19012KT 20/19 A2982 RMK A01 T02040194  RH  094%=      5-min Rain = 0
KCA1 271430Z 18014KT 20/19 A2982 RMK A01 T02040194  RH  094%=      5-min Rain = 0
KCA1 271431Z 18015KT 20/19 A2982 RMK A01 T02040193  RH  093%=      5-min Rain = 0
KCA1 271432Z 17012KT 21/19 A2982 RMK A01 T02050194  RH  093%=      5-min Rain = 0
KCA1 271433Z 19013KT 21/19 A2982 RMK A01 T02050194  RH  094%=      5-min Rain = 0
KCA1 271434Z 19015KT 21/19 A2982 RMK A01 T02050194  RH  093%=      5-min Rain = 0
KCA1 271435Z 19016KT 21/19 A2982 RMK A01 T02050194  RH  093%=      5-min Rain = 0
KCA1 271436Z 19015KT 21/19 A2982 RMK A01 T02060194  RH  093%=      5-min Rain = 0
KCA1 271437Z 18011KT 21/20 A2982 RMK A01 T02060195  RH  094%=      5-min Rain = 0
KCA1 271438Z 18012KT 21/20 A2982 RMK A01 T02060196  RH  094%=      5-min Rain = 0
KCA1 271439Z 18013KT 21/20 A2982 RMK A01 T02070196  RH  093%=      5-min Rain = 0
KCA1 271440Z 18013KT 21/20 A2982 RMK A01 T02080197  RH  093%=      5-min Rain = 0
KCA1 271441Z 17014KT 21/20 A2982 RMK A01 T02090196  RH  092%=      5-min Rain = 0
KCA1 271442Z 18012KT 21/20 A2982 RMK A01 T02100196  RH  092%=      5-min Rain = 0
KCA1 271443Z 18012KT 21/20 A2982 RMK A01 T02110197  RH  092%=      5-min Rain = 0
KCA1 271444Z 18013KT 21/20 A2982 RMK A01 T02110197  RH  092%=      5-min Rain = 0
KCA1 271445Z 17011KT 21/20 A2982 RMK A01 T02110197  RH  092%=      5-min Rain = 0
KCA1 271446Z 18015KT 21/20 A2982 RMK A01 T02100196  RH  091%=      5-min Rain = 0
KCA1 271447Z 18012KT 21/20 A2982 RMK A01 T02100195  RH  091%=      5-min Rain = 0
KCA1 271448Z 17012KT 21/20 A2982 RMK A01 T02100197  RH  092%=      5-min Rain = 0
KCA1 271449Z 16012KT 21/20 A2982 RMK A01 T02100198  RH  092%=      5-min Rain = 0
KCA1 271450Z 17011KT 21/20 A2982 RMK A01 T02110199  RH  093%=      5-min Rain = 0
KCA1 271451Z 18010KT 21/20 A2982 RMK A01 T02110198  RH  092%=      5-min Rain = 0
KCA1 271452Z 17012KT 21/20 A2982 RMK A01 T02120198  RH  092%=      5-min Rain = 0
KCA1 271453Z 16013KT 21/20 A2982 RMK A01 T02120198  RH  092%=      5-min Rain = 0
KCA1 271454Z 17010KT 21/20 A2982 RMK A01 T02120196  RH  091%=      5-min Rain = 0
KCA1 271455Z 18010KT 21/20 A2982 RMK A01 T02110196  RH  091%=      5-min Rain = 0
KCA1 271456Z 19009KT 21/20 A2982 RMK A01 T02110198  RH  092%=      5-min Rain = 0
KCA1 271457Z 18010KT 21/20 A2982 RMK A01 T02110198  RH  092%=      5-min Rain = 0
KCA1 271458Z 18012KT 21/20 A2982 RMK A01 T02110198  RH  092%=      5-min Rain = 0
KCA1 271459Z 18014KT 21/20 A2982 RMK A01 T02120197  RH  091%=      5-min Rain = 0
KCA1 271500Z 18013KT 21/20 A2982 RMK A01 T02130197  RH  091%=      5-min Rain = 0
KCA1 271506Z 19011KT 21/20 A2982 RMK A01 T02110195  RH  090%=      5-min Rain = 0
KCA1 271507Z 18010KT 21/20 A2982 RMK A01 T02110196  RH  091%=      5-min Rain = 0
KCA1 271508Z 19010KT 21/20 A2982 RMK A01 T02110197  RH  091%=      5-min Rain = 0
KCA1 271509Z 19010KT 21/20 A2983 RMK A01 T02120196  RH  091%=      5-min Rain = 0
KCA1 271510Z 17009KT 21/20 A2983 RMK A01 T02120197  RH  091%=      5-min Rain = 0
KCA1 271511Z 19011KT 21/20 A2983 RMK A01 T02130198  RH  091%=      5-min Rain = 0
KCA1 271512Z 19010KT 21/20 A2983 RMK A01 T02130198  RH  091%=      5-min Rain = 0
KCA1 271513Z 18011KT 21/20 A2983 RMK A01 T02140198  RH  090%=      5-min Rain = 0
KCA1 271514Z 19010KT 22/20 A2983 RMK A01 T02150198  RH  090%=      5-min Rain = 0
KCA1 271515Z 19010KT 22/20 A2983 RMK A01 T02150197  RH  090%=      5-min Rain = 0
KCA1 271516Z 19007KT 22/20 A2983 RMK A01 T02150199  RH  090%=      5-min Rain = 0
KCA1 271517Z 18009KT 22/20 A2983 RMK A01 T02150199  RH  091%=      5-min Rain = 0
KCA1 271518Z 18012KT 22/20 A2982 RMK A01 T02160199  RH  090%=      5-min Rain = 0
KCA1 271519Z 18011KT 22/20 A2982 RMK A01 T02160198  RH  089%=      5-min Rain = 0
KCA1 271520Z 18012KT 22/20 A2982 RMK A01 T02170198  RH  089%=      5-min Rain = 0
KCA1 271521Z 19008KT 22/20 A2982 RMK A01 T02170199  RH  089%=      5-min Rain = 0
KCA1 271522Z 19012KT 22/20 A2982 RMK A01 T02170199  RH  089%=      5-min Rain = 0
KCA1 271523Z 19011KT 22/20 A2982 RMK A01 T02170198  RH  089%=      5-min Rain = 0
KCA1 271524Z 18014KT 22/20 A2982 RMK A01 T02170198  RH  089%=      5-min Rain = 0
KCA1 271525Z 19012KT 22/20 A2982 RMK A01 T02170197  RH  088%=      5-min Rain = 0
KCA1 271526Z 19010KT 22/20 A2983 RMK A01 T02170199  RH  089%=      5-min Rain = 0
KCA1 271527Z 20012KT 22/20 A2982 RMK A01 T02170198  RH  089%=      5-min Rain = 0
KCA1 271528Z 19010KT 22/20 A2983 RMK A01 T02170197  RH  088%=      5-min Rain = 0
KCA1 271529Z 19009KT 22/20 A2982 RMK A01 T02170199  RH  089%=      5-min Rain = 0
KCA1 271530Z 18011KT 22/20 A2982 RMK A01 T02180200  RH  089%=      5-min Rain = 0
KCA1 271531Z 18010KT 22/20 A2982 RMK A01 T02200201  RH  089%=      5-min Rain = 0
KCA1 271532Z 19012KT 22/20 A2982 RMK A01 T02220204  RH  089%=      5-min Rain = 0
KCA1 271533Z 20013KT 22/20 A2982 RMK A01 T02240198  RH  086%=      5-min Rain = 0
KCA1 271534Z 18012KT 22/20 A2982 RMK A01 T02230198  RH  085%=      5-min Rain = 0
KCA1 271535Z 17012KT 22/20 A2982 RMK A01 T02230199  RH  086%=      5-min Rain = 0
KCA1 271536Z 19010KT 22/20 A2982 RMK A01 T02230199  RH  086%=      5-min Rain = 0
KCA1 271537Z 17012KT 22/20 A2982 RMK A01 T02230199  RH  086%=      5-min Rain = 0
KCA1 271538Z 17011KT 22/20 A2982 RMK A01 T02240200  RH  086%=      5-min Rain = 0
KCA1 271539Z 17013KT 23/20 A2982 RMK A01 T02250199  RH  085%=      5-min Rain = 0
KCA1 271540Z 16012KT 23/20 A2982 RMK A01 T02250198  RH  085%=      5-min Rain = 0
KCA1 271541Z 17010KT 23/20 A2982 RMK A01 T02250198  RH  085%=      5-min Rain = 0
KCA1 271542Z 17011KT 23/20 A2982 RMK A01 T02250200  RH  086%=      5-min Rain = 0
KCA1 271543Z 19011KT 23/20 A2982 RMK A01 T02250201  RH  086%=      5-min Rain = 0
KCA1 271544Z 19011KT 23/20 A2982 RMK A01 T02270200  RH  085%=      5-min Rain = 0
KCA1 271545Z 18013KT 23/20 A2982 RMK A01 T02270199  RH  084%=      5-min Rain = 0
KCA1 271546Z 18011KT 23/20 A2982 RMK A01 T02300203  RH  085%=      5-min Rain = 0
KCA1 271547Z 18012KT 23/20 A2982 RMK A01 T02330203  RH  083%=      5-min Rain = 0
KCA1 271548Z 19013KT 23/20 A2982 RMK A01 T02330199  RH  081%=      5-min Rain = 0
KCA1 271549Z 18013KT 23/20 A2982 RMK A01 T02300199  RH  083%=      5-min Rain = 0
KCA1 271550Z 19014KT 23/20 A2982 RMK A01 T02290198  RH  083%=      5-min Rain = 0
KCA1 271551Z 19013KT 23/20 A2982 RMK A01 T02290200  RH  084%=      5-min Rain = 0
KCA1 271552Z 19013KT 23/20 A2982 RMK A01 T02290198  RH  082%=      5-min Rain = 0
KCA1 271553Z 19014KT 23/20 A2982 RMK A01 T02300199  RH  082%=      5-min Rain = 0
KCA1 271554Z 19013KT 23/20 A2982 RMK A01 T02310197  RH  081%=      5-min Rain = 0
KCA1 271555Z 19009KT 23/20 A2982 RMK A01 T02320197  RH  081%=      5-min Rain = 0
KCA1 271556Z 19009KT 23/20 A2982 RMK A01 T02330199  RH  081%=      5-min Rain = 0
KCA1 271557Z 19009KT 23/20 A2982 RMK A01 T02330201  RH  082%=      5-min Rain = 0
KCA1 271558Z 18011KT 23/20 A2982 RMK A01 T02330200  RH  082%=      5-min Rain = 0
KCA1 271559Z 18012KT 23/20 A2982 RMK A01 T02340200  RH  081%=      5-min Rain = 0
KCA1 271600Z 19010KT 23/20 A2982 RMK A01 T02340197  RH  080%=      5-min Rain = 0
KCA1 271601Z 19008KT 23/20 A2982 RMK A01 T02330200  RH  081%=      5-min Rain = 0
KCA1 271602Z 18010KT 23/20 A2982 RMK A01 T02330201  RH  082%=      5-min Rain = 0
KCA1 271603Z 19010KT 23/20 A2981 RMK A01 T02340203  RH  082%=      5-min Rain = 0
KCA1 271604Z 20008KT 24/20 A2981 RMK A01 T02350202  RH  081%=      5-min Rain = 0
KCA1 271605Z 19010KT 24/20 A2981 RMK A01 T02370203  RH  082%=      5-min Rain = 0
KCA1 271606Z 19010KT 24/20 A2981 RMK A01 T02370204  RH  082%=      5-min Rain = 0
KCA1 271607Z 20010KT 24/20 A2981 RMK A01 T02360201  RH  081%=      5-min Rain = 0
KCA1 271608Z 19008KT 23/20 A2981 RMK A01 T02340201  RH  081%=      5-min Rain = 0
KCA1 271609Z 18010KT 23/20 A2981 RMK A01 T02340201  RH  082%=      5-min Rain = 0
KCA1 271610Z 17008KT 23/20 A2981 RMK A01 T02340201  RH  082%=      5-min Rain = 0
KCA1 271611Z 16011KT 24/20 A2981 RMK A01 T02360202  RH  081%=      5-min Rain = 0
KCA1 271612Z 18009KT 24/20 A2981 RMK A01 T02370201  RH  080%=      5-min Rain = 0
KCA1 271613Z 18011KT 24/21 A2981 RMK A01 T02390205  RH  081%=      5-min Rain = 0
KCA1 271614Z 19010KT 24/20 A2981 RMK A01 T02410202  RH  079%=      5-min Rain = 0
KCA1 271615Z 19011KT 24/21 A2981 RMK A01 T02420205  RH  080%=      5-min Rain = 0
KCA1 271616Z 18014KT 24/20 A2981 RMK A01 T02430201  RH  078%=      5-min Rain = 0
KCA1 271617Z 18012KT 24/20 A2981 RMK A01 T02410200  RH  078%=      5-min Rain = 0
KCA1 271618Z 18012KT 24/20 A2981 RMK A01 T02420203  RH  079%=      5-min Rain = 0
KCA1 271619Z 18013KT 24/20 A2981 RMK A01 T02430200  RH  077%=      5-min Rain = 0
KCA1 271620Z 18012KT 24/20 A2981 RMK A01 T02430202  RH  078%=      5-min Rain = 0
KCA1 271621Z 19011KT 24/20 A2981 RMK A01 T02410199  RH  077%=      5-min Rain = 0
KCA1 271622Z 18009KT 24/20 A2981 RMK A01 T02390199  RH  078%=      5-min Rain = 0
KCA1 271623Z 17011KT 24/20 A2981 RMK A01 T02400203  RH  080%=      5-min Rain = 0
KCA1 271624Z 17012KT 24/20 A2981 RMK A01 T02440203  RH  078%=      5-min Rain = 0
KCA1 271625Z 17011KT 25/20 A2981 RMK A01 T02450204  RH  078%=      5-min Rain = 0
KCA1 271626Z 20011KT 24/20 A2981 RMK A01 T02440203  RH  077%=      5-min Rain = 0
KCA1 271627Z 20011KT 24/20 A2981 RMK A01 T02430202  RH  078%=      5-min Rain = 0
KCA1 271628Z 20012KT 24/20 A2981 RMK A01 T02410201  RH  078%=      5-min Rain = 0
KCA1 271629Z 19008KT 24/20 A2981 RMK A01 T02390200  RH  079%=      5-min Rain = 0
KCA1 271630Z 19011KT 24/20 A2981 RMK A01 T02380201  RH  080%=      5-min Rain = 0
KCA1 271631Z 19011KT 24/20 A2981 RMK A01 T02380199  RH  079%=      5-min Rain = 0
KCA1 271632Z 19011KT 24/20 A2981 RMK A01 T02380200  RH  079%=      5-min Rain = 0
KCA1 271633Z 20010KT 24/20 A2981 RMK A01 T02380200  RH  079%=      5-min Rain = 0
KCA1 271634Z 20012KT 24/20 A2981 RMK A01 T02370200  RH  080%=      5-min Rain = 0
KCA1 271635Z 19009KT 24/20 A2981 RMK A01 T02370201  RH  080%=      5-min Rain = 0
KCA1 271636Z 18009KT 24/20 A2981 RMK A01 T02380203  RH  080%=      5-min Rain = 0
KCA1 271637Z 18011KT 24/20 A2981 RMK A01 T02390200  RH  079%=      5-min Rain = 0
KCA1 271638Z 19009KT 24/20 A2981 RMK A01 T02410201  RH  078%=      5-min Rain = 0
KCA1 271639Z 21012KT 24/20 A2981 RMK A01 T02430202  RH  078%=      5-min Rain = 0
KCA1 271640Z 20011KT 24/20 A2981 RMK A01 T02440199  RH  076%=      5-min Rain = 0
KCA1 271641Z 19010KT 25/20 A2981 RMK A01 T02450202  RH  077%=      5-min Rain = 0
KCA1 271642Z 19014KT 25/20 A2981 RMK A01 T02450200  RH  076%=      5-min Rain = 0
KCA1 271643Z 19011KT 25/20 A2981 RMK A01 T02460199  RH  075%=      5-min Rain = 0
KCA1 271644Z 20015KT 25/20 A2981 RMK A01 T02470202  RH  076%=      5-min Rain = 0
KCA1 271645Z 19013KT 25/20 A2981 RMK A01 T02490197  RH  073%=      5-min Rain = 0
KCA1 271646Z 19013KT 25/20 A2981 RMK A01 T02470198  RH  074%=      5-min Rain = 0
KCA1 271647Z 19010KT 25/20 A298 RMK A01 T02450200  RH  076%=      5-min Rain = 0
KCA1 271648Z 17011KT 25/20 A298 RMK A01 T02450203  RH  077%=      5-min Rain = 0
KCA1 271649Z 17013KT 25/20 A298 RMK A01 T02490202  RH  075%=      5-min Rain = 0
KCA1 271650Z 17013KT 25/20 A298 RMK A01 T02490201  RH  075%=      5-min Rain = 0
KCA1 271651Z 18011KT 25/20 A298 RMK A01 T02470200  RH  075%=      5-min Rain = 0
KCA1 271652Z 19010KT 25/20 A298 RMK A01 T02450202  RH  077%=      5-min Rain = 0
KCA1 271653Z 18012KT 25/20 A298 RMK A01 T02450202  RH  077%=      5-min Rain = 0
KCA1 271654Z 18012KT 25/20 A298 RMK A01 T02470200  RH  075%=      5-min Rain = 0
KCA1 271655Z 18011KT 25/20 A298 RMK A01 T02470195  RH  073%=      5-min Rain = 0
KCA1 271656Z 18011KT 25/20 A298 RMK A01 T02470200  RH  075%=      5-min Rain = 0
KCA1 271657Z 19012KT 25/20 A298 RMK A01 T02490198  RH  073%=      5-min Rain = 0
KCA1 271658Z 17009KT 25/20 A298 RMK A01 T02490202  RH  075%=      5-min Rain = 0
KCA1 271659Z 18009KT 25/20 A298 RMK A01 T02490204  RH  076%=      5-min Rain = 0
KCA1 271700Z 18011KT 25/21 A298 RMK A01 T02500207  RH  077%=      5-min Rain = 0
KCA1 271701Z 19010KT 25/20 A298 RMK A01 T02530203  RH  074%=      5-min Rain = 0
KCA1 271702Z 17012KT 25/20 A298 RMK A01 T02540202  RH  073%=      5-min Rain = 0
KCA1 271703Z 18008KT 25/20 A298 RMK A01 T02530201  RH  073%=      5-min Rain = 0
KCA1 271704Z 19011KT 25/20 A298 RMK A01 T02510204  RH  075%=      5-min Rain = 0
KCA1 271705Z 19012KT 25/20 A298 RMK A01 T02500198  RH  073%=      5-min Rain = 0
KCA1 271706Z 18013KT 25/20 A298 RMK A01 T02510201  RH  074%=      5-min Rain = 0
KCA1 271707Z 19010KT 25/20 A298 RMK A01 T02530201  RH  073%=      5-min Rain = 0
KCA1 271708Z 19008KT 25/20 A298 RMK A01 T02540204  RH  074%=      5-min Rain = 0
KCA1 271709Z 17009KT 26/21 A298 RMK A01 T02560208  RH  075%=      5-min Rain = 0
KCA1 271710Z 17013KT 26/21 A298 RMK A01 T02590206  RH  073%=      5-min Rain = 0
KCA1 271711Z 17011KT 26/21 A298 RMK A01 T02600207  RH  072%=      5-min Rain = 0
KCA1 271712Z 16012KT 26/21 A298 RMK A01 T02600207  RH  072%=      5-min Rain = 0
KCA1 271713Z 16011KT 26/21 A298 RMK A01 T02590205  RH  072%=      5-min Rain = 0
KCA1 271714Z 17011KT 26/20 A298 RMK A01 T02570204  RH  072%=      5-min Rain = 0
KCA1 271715Z 16010KT 26/21 A298 RMK A01 T02560207  RH  074%=      5-min Rain = 0
KCA1 271716Z 16011KT 26/21 A298 RMK A01 T02570209  RH  075%=      5-min Rain = 0
KCA1 271717Z 18009KT 26/21 A298 RMK A01 T02590208  RH  074%=      5-min Rain = 0
KCA1 271718Z 19010KT 26/21 A298 RMK A01 T02600209  RH  073%=      5-min Rain = 0
KCA1 271719Z 19010KT 26/21 A298 RMK A01 T02600208  RH  073%=      5-min Rain = 0
KCA1 271720Z 19012KT 26/21 A298 RMK A01 T02610207  RH  072%=      5-min Rain = 0
KCA1 271721Z 18011KT 26/20 A298 RMK A01 T02590200  RH  070%=      5-min Rain = 0
KCA1 271722Z 19008KT 26/20 A298 RMK A01 T02560203  RH  073%=      5-min Rain = 0
KCA1 271723Z 18011KT 26/21 A2979 RMK A01 T02560205  RH  074%=      5-min Rain = 0
KCA1 271724Z 16014KT 26/20 A2979 RMK A01 T02570204  RH  072%=      5-min Rain = 0
KCA1 271725Z 17011KT 26/21 A2979 RMK A01 T02590206  RH  073%=      5-min Rain = 0
KCA1 271726Z 17012KT 26/21 A2979 RMK A01 T02610206  RH  071%=      5-min Rain = 0
KCA1 271727Z 17010KT 26/20 A2979 RMK A01 T02620204  RH  070%=      5-min Rain = 0
KCA1 271728Z 18009KT 26/21 A2979 RMK A01 T02610207  RH  072%=      5-min Rain = 0
KCA1 271729Z 17008KT 26/21 A2979 RMK A01 T02640213  RH  073%=      5-min Rain = 0
KCA1 271730Z 17010KT 27/21 A2979 RMK A01 T02670208  RH  070%=      5-min Rain = 0
KCA1 271731Z 18010KT 27/21 A2979 RMK A01 T02670209  RH  070%=      5-min Rain = 0
KCA1 271732Z 17012KT 27/21 A2979 RMK A01 T02670206  RH  069%=      5-min Rain = 0
KCA1 271733Z 17010KT 27/21 A2979 RMK A01 T02660205  RH  069%=      5-min Rain = 0
KCA1 271734Z 18014KT 27/21 A2979 RMK A01 T02650207  RH  070%=      5-min Rain = 0
KCA1 271735Z 16012KT 26/20 A2979 RMK A01 T02640204  RH  069%=      5-min Rain = 0
KCA1 271736Z 16011KT 26/21 A2979 RMK A01 T02640206  RH  070%=      5-min Rain = 0
KCA1 271737Z 16008KT 27/21 A2979 RMK A01 T02650212  RH  072%=      5-min Rain = 0
KCA1 271738Z 17011KT 27/21 A2979 RMK A01 T02680211  RH  071%=      5-min Rain = 0
KCA1 271739Z 17014KT 27/21 A2979 RMK A01 T02690207  RH  069%=      5-min Rain = 0
KCA1 271740Z 17011KT 27/21 A2979 RMK A01 T02690211  RH  071%=      5-min Rain = 0
KCA1 271741Z 17012KT 27/21 A2979 RMK A01 T02690208  RH  069%=      5-min Rain = 0
KCA1 271742Z 17008KT 27/21 A2979 RMK A01 T02690213  RH  071%=      5-min Rain = 0
KCA1 271743Z 15014KT 27/21 A2979 RMK A01 T02710213  RH  070%=      5-min Rain = 0
KCA1 271744Z 16014G19KT 27/21 A2979 RMK A01 T02710209  RH  069%=      5-min Rain = 0
KCA1 271745Z 18015KT 27/21 A2979 RMK A01 T02690209  RH  070%=      5-min Rain = 0
KCA1 271746Z 19010KT 27/20 A2979 RMK A01 T02660204  RH  069%=      5-min Rain = 0
KCA1 271747Z 18011KT 26/21 A2979 RMK A01 T02620206  RH  071%=      5-min Rain = 0
KCA1 271748Z 17011KT 26/21 A2979 RMK A01 T02600207  RH  072%=      5-min Rain = 0
KCA1 271749Z 17013KT 26/21 A2979 RMK A01 T02610207  RH  072%=      5-min Rain = 0
KCA1 271750Z 17009KT 26/21 A2979 RMK A01 T02630210  RH  072%=      5-min Rain = 0
KCA1 271751Z 18011KT 27/22 A2979 RMK A01 T02670215  RH  073%=      5-min Rain = 0
KCA1 271752Z 18014KT 27/21 A2979 RMK A01 T02690206  RH  068%=      5-min Rain = 0
KCA1 271753Z 19010KT 27/21 A2979 RMK A01 T02690205  RH  068%=      5-min Rain = 0
KCA1 271754Z 19010KT 27/21 A2979 RMK A01 T02680207  RH  069%=      5-min Rain = 0
KCA1 271755Z 18010KT 27/21 A2979 RMK A01 T02680209  RH  070%=      5-min Rain = 0
KCA1 271756Z 17012KT 27/21 A2979 RMK A01 T02690207  RH  069%=      5-min Rain = 0
KCA1 271757Z 17008KT 27/21 A2979 RMK A01 T02690206  RH  069%=      5-min Rain = 0
KCA1 271758Z 17010KT 27/22 A2979 RMK A01 T02690215  RH  072%=      5-min Rain = 0
KCA1 271759Z 18009G14KT 27/21 A2979 RMK A01 T02720211  RH  069%=      5-min Rain = 0
KCA1 271800Z 17011KT 27/21 A2978 RMK A01 T02720210  RH  069%=      5-min Rain = 0
KCA1 271801Z 18008KT 27/21 A2978 RMK A01 T02720212  RH  070%=      5-min Rain = 0
KCA1 271802Z 18011KT 27/21 A2978 RMK A01 T02730209  RH  068%=      5-min Rain = 0
KCA1 271803Z 17012KT 27/21 A2978 RMK A01 T02730211  RH  069%=      5-min Rain = 0
KCA1 271804Z 17012KT 27/21 A2978 RMK A01 T02730213  RH  070%=      5-min Rain = 0
KCA1 271805Z 17015KT 27/21 A2978 RMK A01 T02740209  RH  068%=      5-min Rain = 0
KCA1 271806Z 17013KT 27/21 A2978 RMK A01 T02720207  RH  068%=      5-min Rain = 0
KCA1 271807Z 17010KT 27/21 A2978 RMK A01 T02710209  RH  069%=      5-min Rain = 0
KCA1 271808Z 18011KT 27/21 A2978 RMK A01 T02720213  RH  070%=      5-min Rain = 0
KCA1 271809Z 18009G15KT 27/22 A2978 RMK A01 T02740215  RH  070%=      5-min Rain = 0
KCA1 271810Z 18012KT 28/21 A2978 RMK A01 T02760213  RH  068%=      5-min Rain = 0
KCA1 271811Z 17014KT 28/21 A2978 RMK A01 T02760209  RH  067%=      5-min Rain = 0
KCA1 271812Z 18013KT 28/21 A2978 RMK A01 T02750208  RH  067%=      5-min Rain = 0
KCA1 271813Z 18010KT 27/21 A2978 RMK A01 T02740209  RH  068%=      5-min Rain = 0
KCA1 271814Z 18011KT 27/21 A2978 RMK A01 T02740213  RH  069%=      5-min Rain = 0
KCA1 271815Z 18013KT 27/21 A2978 RMK A01 T02740208  RH  067%=      5-min Rain = 0
KCA1 271816Z 18012G17KT 27/21 A2978 RMK A01 T02740205  RH  066%=      5-min Rain = 0
KCA1 271817Z 17014KT 27/21 A2978 RMK A01 T02730207  RH  067%=      5-min Rain = 0
KCA1 271818Z 18012KT 27/21 A2978 RMK A01 T02730205  RH  066%=      5-min Rain = 0
KCA1 271819Z 17010KT 27/21 A2977 RMK A01 T02730206  RH  067%=      5-min Rain = 0
KCA1 271820Z 16010KT 27/21 A2977 RMK A01 T02720209  RH  068%=      5-min Rain = 0
KCA1 271821Z 18012KT 27/21 A2977 RMK A01 T02730208  RH  067%=      5-min Rain = 0
KCA1 271822Z 18011KT 27/21 A2977 RMK A01 T02740208  RH  067%=      5-min Rain = 0
KCA1 271823Z 17009KT 28/21 A2977 RMK A01 T02750208  RH  067%=      5-min Rain = 0
KCA1 271824Z 16011KT 28/21 A2977 RMK A01 T02760210  RH  068%=      5-min Rain = 0
KCA1 271825Z 15011KT 28/20 A2977 RMK A01 T02760203  RH  065%=      5-min Rain = 0
KCA1 271826Z 15012KT 27/20 A2977 RMK A01 T02730204  RH  066%=      5-min Rain = 0
KCA1 271827Z 16010KT 27/21 A2977 RMK A01 T02720209  RH  068%=      5-min Rain = 0
KCA1 271828Z 16009KT 27/21 A2977 RMK A01 T02730213  RH  070%=      5-min Rain = 0
KCA1 271829Z 15011KT 28/22 A2977 RMK A01 T02770216  RH  069%=      5-min Rain = 0
KCA1 271830Z 15011G16KT 28/21 A2977 RMK A01 T02790211  RH  066%=      5-min Rain = 0
KCA1 271831Z 15014KT 28/21 A2977 RMK A01 T02790209  RH  066%=      5-min Rain = 0
KCA1 271832Z 18011KT 28/21 A2977 RMK A01 T02780210  RH  067%=      5-min Rain = 0
KCA1 271833Z 17014KT 28/21 A2977 RMK A01 T02780209  RH  066%=      5-min Rain = 0
KCA1 271834Z 18015KT 28/21 A2977 RMK A01 T02790207  RH  065%=      5-min Rain = 0
KCA1 271835Z 19014KT 28/21 A2977 RMK A01 T02780206  RH  065%=      5-min Rain = 0
KCA1 271836Z 20011KT 28/20 A2977 RMK A01 T02770202  RH  063%=      5-min Rain = 0
KCA1 271837Z 18008KT 28/20 A2977 RMK A01 T02770203  RH  064%=      5-min Rain = 0
KCA1 271838Z 16011KT 28/21 A2977 RMK A01 T02790208  RH  065%=      5-min Rain = 0
KCA1 271839Z 16013KT 28/21 A2977 RMK A01 T02820213  RH  066%=      5-min Rain = 0
KCA1 271840Z 16014KT 28/21 A2977 RMK A01 T02820208  RH  064%=      5-min Rain = 0
KCA1 271841Z 18013G18KT 28/20 A2977 RMK A01 T02790204  RH  064%=      5-min Rain = 0
KCA1 271842Z 16013KT 28/21 A2977 RMK A01 T02770208  RH  066%=      5-min Rain = 0
KCA1 271843Z 18013KT 28/21 A2977 RMK A01 T02790208  RH  065%=      5-min Rain = 0
KCA1 271844Z 20011G17KT 28/21 A2977 RMK A01 T02810208  RH  065%=      5-min Rain = 0
KCA1 271845Z 20014KT 28/20 A2977 RMK A01 T02810203  RH  063%=      5-min Rain = 0
KCA1 271846Z 19011KT 28/20 A2977 RMK A01 T02800202  RH  063%=      5-min Rain = 0
KCA1 271847Z 18011KT 28/20 A2977 RMK A01 T02790204  RH  064%=      5-min Rain = 0
KCA1 271848Z 17011KT 28/21 A2977 RMK A01 T02790208  RH  065%=      5-min Rain = 0
KCA1 271849Z 18013G18KT 28/21 A2977 RMK A01 T02800207  RH  065%=      5-min Rain = 0
KCA1 271850Z 17014KT 28/20 A2977 RMK A01 T02800204  RH  063%=      5-min Rain = 0
KCA1 271851Z 18013KT 28/21 A2977 RMK A01 T02780208  RH  066%=      5-min Rain = 0
KCA1 271852Z 19013KT 28/20 A2977 RMK A01 T02780204  RH  064%=      5-min Rain = 0
KCA1 271853Z 18016KT 28/21 A2977 RMK A01 T02790205  RH  064%=      5-min Rain = 0
KCA1 271854Z 18011KT 28/20 A2977 RMK A01 T02790204  RH  064%=      5-min Rain = 0
KCA1 271855Z 18014KT 28/20 A2976 RMK A01 T02790202  RH  063%=      5-min Rain = 0
KCA1 271856Z 18015KT 28/20 A2976 RMK A01 T02790202  RH  063%=      5-min Rain = 0
KCA1 271857Z 18012KT 28/20 A2976 RMK A01 T02770204  RH  064%=      5-min Rain = 0
KCA1 271858Z 18016KT 28/21 A2976 RMK A01 T02770206  RH  065%=      5-min Rain = 0
KCA1 271859Z 19013KT 28/21 A2976 RMK A01 T02780206  RH  065%=      5-min Rain = 0
KCA1 271900Z 18013KT 28/21 A2976 RMK A01 T02780205  RH  065%=      5-min Rain = 0
KCA1 271901Z 21009KT 28/21 A2976 RMK A01 T02800209  RH  066%=      5-min Rain = 0
KCA1 271902Z 20011KT 28/20 A2976 RMK A01 T02810203  RH  062%=      5-min Rain = 0
KCA1 271903Z 18012KT 28/21 A2976 RMK A01 T02830207  RH  063%=      5-min Rain = 0
KCA1 271904Z 18013KT 29/20 A2976 RMK A01 T02850204  RH  062%=      5-min Rain = 0
KCA1 271905Z 17013KT 28/20 A2976 RMK A01 T02840201  RH  061%=      5-min Rain = 0
KCA1 271906Z 18013KT 28/20 A2976 RMK A01 T02830204  RH  062%=      5-min Rain = 0
KCA1 271907Z 19012KT 28/21 A2976 RMK A01 T02820207  RH  063%=      5-min Rain = 0
KCA1 271908Z 19011G16KT 28/21 A2976 RMK A01 T02830205  RH  063%=      5-min Rain = 0
KCA1 271909Z 17014G19KT 28/21 A2976 RMK A01 T02820207  RH  064%=      5-min Rain = 0
KCA1 271910Z 17014KT 28/20 A2976 RMK A01 T02830204  RH  062%=      5-min Rain = 0
KCA1 271911Z 17014G19KT 28/21 A2976 RMK A01 T02810205  RH  063%=      5-min Rain = 0
KCA1 271912Z 17015KT 28/20 A2976 RMK A01 T02810203  RH  062%=      5-min Rain = 0
KCA1 271913Z 16014KT 28/20 A2976 RMK A01 T02810204  RH  063%=      5-min Rain = 0
KCA1 271914Z 19016KT 28/20 A2976 RMK A01 T02810204  RH  063%=      5-min Rain = 0
KCA1 271915Z 18014KT 28/20 A2976 RMK A01 T02820203  RH  062%=      5-min Rain = 0
KCA1 271916Z 18013KT 28/21 A2976 RMK A01 T02820205  RH  063%=      5-min Rain = 0
KCA1 271917Z 19012KT 28/21 A2975 RMK A01 T02830208  RH  064%=      5-min Rain = 0
KCA1 271918Z 20014KT 28/21 A2975 RMK A01 T02840205  RH  063%=      5-min Rain = 0
KCA1 271919Z 19016KT 28/20 A2975 RMK A01 T02840204  RH  062%=      5-min Rain = 0
KCA1 271920Z 19016KT 28/20 A2975 RMK A01 T02830202  RH  062%=      5-min Rain = 0
KCA1 271921Z 18017KT 28/20 A2975 RMK A01 T02830199  RH  061%=      5-min Rain = 0
KCA1 271922Z 17014KT 28/20 A2975 RMK A01 T02820201  RH  062%=      5-min Rain = 0
KCA1 271923Z 17017KT 28/20 A2975 RMK A01 T02820199  RH  061%=      5-min Rain = 0
KCA1 271924Z 17015KT 28/20 A2975 RMK A01 T02820201  RH  061%=      5-min Rain = 0
KCA1 271925Z 17016KT 28/20 A2975 RMK A01 T02820202  RH  062%=      5-min Rain = 0
KCA1 271926Z 18013KT 28/20 A2975 RMK A01 T02820204  RH  063%=      5-min Rain = 0
KCA1 271927Z 18015KT 28/20 A2975 RMK A01 T02840204  RH  062%=      5-min Rain = 0
KCA1 271928Z 18016KT 29/20 A2974 RMK A01 T02850199  RH  060%=      5-min Rain = 0
KCA1 271929Z 18015KT 28/19 A2974 RMK A01 T02840194  RH  058%=      5-min Rain = 0
KCA1 271930Z 19015KT 28/20 A2974 RMK A01 T02830199  RH  060%=      5-min Rain = 0
KCA1 271931Z 19012KT 28/20 A2974 RMK A01 T02830198  RH  060%=      5-min Rain = 0
KCA1 271932Z 17015KT 28/20 A2974 RMK A01 T02840203  RH  062%=      5-min Rain = 0
KCA1 271933Z 17014KT 29/20 A2974 RMK A01 T02850202  RH  061%=      5-min Rain = 0
KCA1 271934Z 17015KT 29/20 A2974 RMK A01 T02860203  RH  061%=      5-min Rain = 0
KCA1 271935Z 17013KT 29/21 A2974 RMK A01 T02860205  RH  062%=      5-min Rain = 0
KCA1 271936Z 16015KT 29/20 A2974 RMK A01 T02870201  RH  060%=      5-min Rain = 0
KCA1 271937Z 17015KT 29/20 A2974 RMK A01 T02870196  RH  058%=      5-min Rain = 0
KCA1 271938Z 18015KT 29/20 A2974 RMK A01 T02860198  RH  059%=      5-min Rain = 0
KCA1 271939Z 17018KT 29/20 A2974 RMK A01 T02850196  RH  059%=      5-min Rain = 0
KCA1 271940Z 17016KT 29/20 A2974 RMK A01 T02850197  RH  059%=      5-min Rain = 0
KCA1 271941Z 17014KT 28/20 A2974 RMK A01 T02840199  RH  060%=      5-min Rain = 0
KCA1 271942Z 17017KT 28/20 A2973 RMK A01 T02840199  RH  060%=      5-min Rain = 0
KCA1 271943Z 17015KT 29/20 A2973 RMK A01 T02850199  RH  060%=      5-min Rain = 0
KCA1 271944Z 18014KT 29/20 A2973 RMK A01 T02850200  RH  060%=      5-min Rain = 0
KCA1 271945Z 17014KT 29/21 A2973 RMK A01 T02850205  RH  062%=      5-min Rain = 0
KCA1 271946Z 18016KT 29/20 A2973 RMK A01 T02860200  RH  060%=      5-min Rain = 0.01
KCA1 271947Z 19016KT 29/20 A2973 RMK A01 T02870199  RH  059%=      5-min Rain = 0
KCA1 271948Z 18015KT 29/20 A2973 RMK A01 T02860199  RH  059%=      5-min Rain = 0
KCA1 271949Z 17014KT 29/20 A2973 RMK A01 T02870198  RH  059%=      5-min Rain = 0
KCA1 271950Z 18014KT 29/20 A2973 RMK A01 T02870195  RH  058%=      5-min Rain = 0
KCA1 271951Z 18015KT 29/20 A2973 RMK A01 T02860203  RH  060%=      5-min Rain = 0
KCA1 271952Z 17014KT 29/21 A2973 RMK A01 T02870205  RH  061%=      5-min Rain = 0
KCA1 271953Z 18018KT 29/21 A2973 RMK A01 T02890207  RH  061%=      5-min Rain = 0
KCA1 271954Z 18017G22KT 29/20 A2973 RMK A01 T02890203  RH  060%=      5-min Rain = 0
KCA1 271955Z 18018KT 29/21 A2973 RMK A01 T02880205  RH  061%=      5-min Rain = 0
KCA1 271956Z 18018KT 29/20 A2973 RMK A01 T02870204  RH  061%=      5-min Rain = 0
KCA1 271957Z 19017KT 29/19 A2973 RMK A01 T02870192  RH  057%=      5-min Rain = 0
KCA1 271958Z 19016KT 29/19 A2973 RMK A01 T02870190  RH  056%=      5-min Rain = 0
KCA1 271959Z 19014KT 29/19 A2973 RMK A01 T02860188  RH  055%=      5-min Rain = 0
KCA1 272000Z 18012KT 29/19 A2973 RMK A01 T02860187  RH  055%=      5-min Rain = 0
KCA1 272001Z 18010KT 29/20 A2973 RMK A01 T02860198  RH  059%=      5-min Rain = 0
KCA1 272002Z 18013G18KT 29/21 A2973 RMK A01 T02890207  RH  061%=      5-min Rain = 0
KCA1 272003Z 19014KT 29/20 A2973 RMK A01 T02900202  RH  059%=      5-min Rain = 0
KCA1 272004Z 18016KT 29/21 A2973 RMK A01 T02890205  RH  060%=      5-min Rain = 0
KCA1 272005Z 17011KT 29/21 A2973 RMK A01 T02890208  RH  062%=      5-min Rain = 0
KCA1 272006Z 17015KT 29/21 A2973 RMK A01 T02900208  RH  061%=      5-min Rain = 0
KCA1 272007Z 16015KT 29/21 A2973 RMK A01 T02920205  RH  060%=      5-min Rain = 0
KCA1 272008Z 17016KT 29/21 A2973 RMK A01 T02920207  RH  060%=      5-min Rain = 0
KCA1 272009Z 19016KT 29/21 A2973 RMK A01 T02920205  RH  059%=      5-min Rain = 0
KCA1 272010Z 19013KT 29/20 A2973 RMK A01 T02900202  RH  059%=      5-min Rain = 0
KCA1 272011Z 17012KT 29/21 A2973 RMK A01 T02880206  RH  061%=      5-min Rain = 0
KCA1 272012Z 18017G22KT 29/20 A2973 RMK A01 T02880204  RH  061%=      5-min Rain = 0
KCA1 272013Z 18014KT 29/20 A2972 RMK A01 T02890200  RH  059%=      5-min Rain = 0
KCA1 272014Z 17015KT 29/20 A2973 RMK A01 T02890200  RH  059%=      5-min Rain = 0
KCA1 272015Z 17014KT 29/20 A2973 RMK A01 T02890200  RH  059%=      5-min Rain = 0
KCA1 272016Z 17015KT 29/20 A2972 RMK A01 T02900203  RH  059%=      5-min Rain = 0
KCA1 272017Z 18014KT 29/20 A2972 RMK A01 T02910204  RH  059%=      5-min Rain = 0
KCA1 272018Z 17012KT 29/20 A2972 RMK A01 T02910204  RH  059%=      5-min Rain = 0
KCA1 272019Z 18015KT 29/20 A2972 RMK A01 T02910201  RH  059%=      5-min Rain = 0
KCA1 272020Z 18014G19KT 29/19 A2972 RMK A01 T02920192  RH  055%=      5-min Rain = 0
KCA1 272021Z 18018KT 29/20 A2972 RMK A01 T02920195  RH  056%=      5-min Rain = 0
KCA1 272022Z 19015KT 29/20 A2972 RMK A01 T02910196  RH  056%=      5-min Rain = 0
KCA1 272023Z 18014KT 29/20 A2972 RMK A01 T02900200  RH  058%=      5-min Rain = 0
KCA1 272024Z 18016KT 29/20 A2972 RMK A01 T02910200  RH  058%=      5-min Rain = 0
KCA1 272025Z 17016KT 29/19 A2972 RMK A01 T02920192  RH  055%=      5-min Rain = 0
KCA1 272026Z 17016KT 29/19 A2972 RMK A01 T02920189  RH  054%=      5-min Rain = 0
KCA1 272027Z 17014KT 29/19 A2972 RMK A01 T02910188  RH  054%=      5-min Rain = 0
KCA1 272028Z 18017KT 29/19 A2972 RMK A01 T02910191  RH  055%=      5-min Rain = 0
KCA1 272029Z 17019G24KT 29/20 A2972 RMK A01 T02920195  RH  056%=      5-min Rain = 0
KCA1 272030Z 16017G22KT 29/20 A2972 RMK A01 T02910198  RH  057%=      5-min Rain = 0
KCA1 272031Z 16020G26KT 29/20 A2972 RMK A01 T02900195  RH  056%=      5-min Rain = 0
KCA1 272032Z 17017KT 29/20 A2972 RMK A01 T02900197  RH  057%=      5-min Rain = 0
KCA1 272033Z 17018KT 29/20 A2972 RMK A01 T02910195  RH  056%=      5-min Rain = 0
KCA1 272034Z 19016KT 29/20 A2972 RMK A01 T02910195  RH  056%=      5-min Rain = 0
KCA1 272035Z 19016KT 29/20 A2972 RMK A01 T02900196  RH  057%=      5-min Rain = 0
KCA1 272036Z 16013KT 29/20 A2972 RMK A01 T02900196  RH  057%=      5-min Rain = 0
KCA1 272037Z 16017KT 29/20 A2972 RMK A01 T02910199  RH  058%=      5-min Rain = 0
KCA1 272038Z 16015G20KT 29/20 A2972 RMK A01 T02920198  RH  057%=      5-min Rain = 0
KCA1 272039Z 17014KT 29/21 A2972 RMK A01 T02930205  RH  059%=      5-min Rain = 0
KCA1 272040Z 18016KT 30/20 A2972 RMK A01 T02950199  RH  056%=      5-min Rain = 0
KCA1 272041Z 16014KT 30/20 A2971 RMK A01 T02950199  RH  056%=      5-min Rain = 0
KCA1 272042Z 17013KT 30/20 A2971 RMK A01 T02960203  RH  057%=      5-min Rain = 0
KCA1 272043Z 17016G21KT 30/20 A2971 RMK A01 T02980201  RH  056%=      5-min Rain = 0
KCA1 272044Z 18017G23KT 30/20 A2971 RMK A01 T02980198  RH  055%=      5-min Rain = 0
KCA1 272045Z 17016KT 30/20 A2971 RMK A01 T02970198  RH  055%=      5-min Rain = 0
KCA1 272046Z 18016KT 30/20 A2971 RMK A01 T02950198  RH  056%=      5-min Rain = 0
KCA1 272047Z 17017KT 29/20 A2971 RMK A01 T02930196  RH  056%=      5-min Rain = 0
KCA1 272048Z 17015G20KT 29/20 A2971 RMK A01 T02920196  RH  056%=      5-min Rain = 0
KCA1 272049Z 16012KT 29/20 A2971 RMK A01 T02920204  RH  059%=      5-min Rain = 0
KCA1 272050Z 17012KT 29/21 A2971 RMK A01 T02940205  RH  059%=      5-min Rain = 0
KCA1 272051Z 17013KT 30/20 A2971 RMK A01 T02960202  RH  057%=      5-min Rain = 0
KCA1 272052Z 18014KT 30/20 A2971 RMK A01 T02960196  RH  055%=      5-min Rain = 0
KCA1 272053Z 17018KT 30/19 A2971 RMK A01 T02960192  RH  054%=      5-min Rain = 0
KCA1 272054Z 18018KT 30/19 A2971 RMK A01 T02950189  RH  053%=      5-min Rain = 0
KCA1 272055Z 16015KT 30/19 A2971 RMK A01 T02950190  RH  053%=      5-min Rain = 0
KCA1 272056Z 16012KT 29/19 A2971 RMK A01 T02940191  RH  054%=      5-min Rain = 0
KCA1 272057Z 16012G17KT 30/19 A2971 RMK A01 T02950193  RH  054%=      5-min Rain = 0
KCA1 272058Z 16012G17KT 30/19 A2971 RMK A01 T02960193  RH  054%=      5-min Rain = 0
KCA1 272059Z 16014G19KT 30/20 A2971 RMK A01 T02970198  RH  055%=      5-min Rain = 0
KCA1 272100Z 17022G27KT 30/19 A2971 RMK A01 T02980190  RH  052%=      5-min Rain = 0
KCA1 272101Z 17017KT 30/19 A2971 RMK A01 T02970187  RH  052%=      5-min Rain = 0
KCA1 272102Z 18016KT 30/19 A2971 RMK A01 T02970188  RH  052%=      5-min Rain = 0
KCA1 272103Z 18017G22KT 30/19 A2971 RMK A01 T02960186  RH  052%=      5-min Rain = 0
KCA1 272104Z 18018G23KT 30/19 A2971 RMK A01 T02960186  RH  052%=      5-min Rain = 0
KCA1 272105Z 18014KT 29/19 A2971 RMK A01 T02940189  RH  053%=      5-min Rain = 0
KCA1 272106Z 17017G22KT 29/19 A2971 RMK A01 T02940193  RH  055%=      5-min Rain = 0
KCA1 272107Z 16016KT 30/19 A2971 RMK A01 T02950192  RH  054%=      5-min Rain = 0
KCA1 272108Z 16017KT 30/19 A2971 RMK A01 T02960190  RH  053%=      5-min Rain = 0
KCA1 272109Z 17015G22KT 30/19 A2971 RMK A01 T02960189  RH  052%=      5-min Rain = 0
KCA1 272110Z 18018KT 30/19 A2971 RMK A01 T02970188  RH  052%=      5-min Rain = 0
KCA1 272111Z 17012KT 30/19 A2971 RMK A01 T02970189  RH  052%=      5-min Rain = 0
KCA1 272112Z 17013KT 30/19 A2971 RMK A01 T02960192  RH  053%=      5-min Rain = 0
KCA1 272113Z 17016KT 30/20 A2971 RMK A01 T02970197  RH  055%=      5-min Rain = 0
KCA1 272114Z 16015KT 30/20 A2971 RMK A01 T02980195  RH  054%=      5-min Rain = 0
KCA1 272115Z 15016KT 30/19 A297 RMK A01 T02980194  RH  054%=      5-min Rain = 0
KCA1 272116Z 17018KT 30/20 A297 RMK A01 T02980195  RH  054%=      5-min Rain = 0
KCA1 272117Z 17014KT 30/20 A297 RMK A01 T02970196  RH  055%=      5-min Rain = 0
KCA1 272118Z 17019KT 30/19 A297 RMK A01 T02970194  RH  054%=      5-min Rain = 0
KCA1 272119Z 17018KT 30/19 A297 RMK A01 T02980191  RH  053%=      5-min Rain = 0
KCA1 272120Z 18016KT 30/19 A297 RMK A01 T02980193  RH  053%=      5-min Rain = 0
KCA1 272121Z 17012KT 30/19 A297 RMK A01 T02980194  RH  054%=      5-min Rain = 0
KCA1 272122Z 18016KT 30/20 A297 RMK A01 T02980197  RH  054%=      5-min Rain = 0
KCA1 272123Z 18016KT 30/19 A297 RMK A01 T02990194  RH  053%=      5-min Rain = 0
KCA1 272124Z 18016KT 30/20 A297 RMK A01 T02990195  RH  054%=      5-min Rain = 0
KCA1 272125Z 18016KT 30/19 A297 RMK A01 T02990194  RH  054%=      5-min Rain = 0
KCA1 272126Z 17018KT 30/19 A297 RMK A01 T02990191  RH  052%=      5-min Rain = 0
KCA1 272127Z 17018G24KT 30/19 A297 RMK A01 T02980188  RH  052%=      5-min Rain = 0
KCA1 272128Z 18016KT 30/19 A297 RMK A01 T02970191  RH  053%=      5-min Rain = 0
KCA1 272129Z 17015G20KT 30/19 A297 RMK A01 T02970190  RH  053%=      5-min Rain = 0
KCA1 272130Z 16014KT 30/20 A297 RMK A01 T02960195  RH  055%=      5-min Rain = 0
KCA1 272131Z 17014KT 30/19 A297 RMK A01 T02960193  RH  054%=      5-min Rain = 0
KCA1 272132Z 18014G19KT 30/20 A297 RMK A01 T02950196  RH  055%=      5-min Rain = 0
KCA1 272133Z 17014KT 30/20 A297 RMK A01 T02960196  RH  055%=      5-min Rain = 0
KCA1 272134Z 17013KT 30/20 A297 RMK A01 T02970204  RH  057%=      5-min Rain = 0
KCA1 272135Z 16016KT 30/20 A297 RMK A01 T02990203  RH  056%=      5-min Rain = 0
KCA1 272136Z 17017KT 30/20 A2969 RMK A01 T02990202  RH  056%=      5-min Rain = 0
KCA1 272137Z 17015KT 30/20 A2969 RMK A01 T02990201  RH  056%=      5-min Rain = 0
KCA1 272138Z 17016KT 30/20 A2969 RMK A01 T02980204  RH  057%=      5-min Rain = 0
KCA1 272139Z 16015KT 30/21 A2969 RMK A01 T02980205  RH  057%=      5-min Rain = 0
KCA1 272140Z 16016KT 30/21 A2969 RMK A01 T02990205  RH  057%=      5-min Rain = 0
KCA1 272141Z 16015G20KT 30/20 A2969 RMK A01 T02990204  RH  057%=      5-min Rain = 0
KCA1 272142Z 15016KT 30/20 A2969 RMK A01 T02990203  RH  056%=      5-min Rain = 0
KCA1 272143Z 16014KT 30/21 A2969 RMK A01 T02990207  RH  058%=      5-min Rain = 0
KCA1 272144Z 15016KT 30/21 A2969 RMK A01 T03000206  RH  057%=      5-min Rain = 0
KCA1 272145Z 16014KT 30/20 A2969 RMK A01 T03000203  RH  056%=      5-min Rain = 0
KCA1 272146Z 16017KT 30/20 A2969 RMK A01 T03000197  RH  054%=      5-min Rain = 0
KCA1 272147Z 16014KT 30/20 A2969 RMK A01 T02990195  RH  054%=      5-min Rain = 0
KCA1 272148Z 16010KT 30/20 A2969 RMK A01 T02980202  RH  056%=      5-min Rain = 0
KCA1 272149Z 17012KT 30/20 A2969 RMK A01 T02990204  RH  057%=      5-min Rain = 0
KCA1 272150Z 17015G20KT 30/21 A2969 RMK A01 T03010207  RH  057%=      5-min Rain = 0
KCA1 272151Z 17018G23KT 30/20 A2968 RMK A01 T03030201  RH  054%=      5-min Rain = 0
KCA1 272152Z 18017KT 30/20 A2968 RMK A01 T03020201  RH  055%=      5-min Rain = 0
KCA1 272153Z 18018KT 30/20 A2968 RMK A01 T03010201  RH  055%=      5-min Rain = 0
KCA1 272154Z 17018KT 30/20 A2968 RMK A01 T02990201  RH  055%=      5-min Rain = 0
KCA1 272155Z 17017KT 30/20 A2968 RMK A01 T02980202  RH  056%=      5-min Rain = 0
KCA1 272156Z 17018KT 30/20 A2968 RMK A01 T02980200  RH  056%=      5-min Rain = 0
KCA1 272157Z 17016KT 30/20 A2968 RMK A01 T02970199  RH  055%=      5-min Rain = 0
KCA1 272158Z 16017KT 30/20 A2968 RMK A01 T02970199  RH  055%=      5-min Rain = 0
KCA1 272159Z 16018G25KT 30/20 A2968 RMK A01 T02970201  RH  056%=      5-min Rain = 0
KCA1 272200Z 16018KT 30/21 A2968 RMK A01 T02980206  RH  058%=      5-min Rain = 0
KCA1 272201Z 16016KT 30/21 A2968 RMK A01 T02990208  RH  058%=      5-min Rain = 0
KCA1 272202Z 16017KT 30/21 A2968 RMK A01 T02990209  RH  058%=      5-min Rain = 0
KCA1 272203Z 16019KT 30/21 A2968 RMK A01 T03000208  RH  058%=      5-min Rain = 0
KCA1 272204Z 17018G24KT 30/20 A2968 RMK A01 T02990202  RH  056%=      5-min Rain = 0
KCA1 272205Z 17018G23KT 30/20 A2968 RMK A01 T02990203  RH  056%=      5-min Rain = 0
KCA1 272206Z 17021KT 30/20 A2968 RMK A01 T02980200  RH  056%=      5-min Rain = 0
KCA1 272207Z 17021KT 29/20 A2968 RMK A01 T02930199  RH  057%=      5-min Rain = 0
KCA1 272208Z 17019KT 29/20 A2968 RMK A01 T02880198  RH  058%=      5-min Rain = 0
KCA1 272209Z 17017KT 29/20 A2968 RMK A01 T02860200  RH  060%=      5-min Rain = 0
KCA1 272210Z 17015G20KT 29/20 A2968 RMK A01 T02860202  RH  060%=      5-min Rain = 0
KCA1 272211Z 16014KT 29/20 A2968 RMK A01 T02890203  RH  060%=      5-min Rain = 0
KCA1 272212Z 16014KT 29/21 A2968 RMK A01 T02910208  RH  061%=      5-min Rain = 0
KCA1 272213Z 15020KT 29/21 A2968 RMK A01 T02930209  RH  060%=      5-min Rain = 0
KCA1 272214Z 16018KT 29/21 A2968 RMK A01 T02940206  RH  059%=      5-min Rain = 0
KCA1 272215Z 16018KT 29/21 A2968 RMK A01 T02930205  RH  059%=      5-min Rain = 0
KCA1 272216Z 15019KT 29/21 A2968 RMK A01 T02920210  RH  061%=      5-min Rain = 0
KCA1 272217Z 16016KT 29/21 A2968 RMK A01 T02920213  RH  063%=      5-min Rain = 0
KCA1 272218Z 16016G23KT 29/22 A2968 RMK A01 T02940215  RH  063%=      5-min Rain = 0
KCA1 272219Z 16020KT 30/21 A2968 RMK A01 T02950211  RH  060%=      5-min Rain = 0
KCA1 272220Z 16020KT 29/21 A2967 RMK A01 T02940210  RH  061%=      5-min Rain = 0
KCA1 272221Z 16018KT 29/21 A2968 RMK A01 T02920209  RH  061%=      5-min Rain = 0
KCA1 272222Z 15018KT 29/21 A2968 RMK A01 T02910211  RH  062%=      5-min Rain = 0
KCA1 272223Z 16018KT 29/21 A2967 RMK A01 T02910213  RH  063%=      5-min Rain = 0
KCA1 272224Z 16018KT 29/21 A2967 RMK A01 T02910212  RH  062%=      5-min Rain = 0
KCA1 272225Z 15020KT 29/21 A2967 RMK A01 T02920214  RH  063%=      5-min Rain = 0
KCA1 272226Z 16023KT 29/21 A2967 RMK A01 T02910213  RH  063%=      5-min Rain = 0
KCA1 272227Z 16019KT 29/21 A2967 RMK A01 T02910213  RH  063%=      5-min Rain = 0
KCA1 272228Z 15019KT 29/21 A2967 RMK A01 T02900213  RH  063%=      5-min Rain = 0
KCA1 272229Z 15019KT 29/21 A2967 RMK A01 T02890214  RH  064%=      5-min Rain = 0
KCA1 272230Z 15018KT 29/22 A2967 RMK A01 T02890215  RH  064%=      5-min Rain = 0
KCA1 272231Z 15015KT 29/22 A2967 RMK A01 T02890215  RH  064%=      5-min Rain = 0
KCA1 272232Z 15019KT 29/22 A2967 RMK A01 T02890215  RH  064%=      5-min Rain = 0
KCA1 272233Z 15016G21KT 29/21 A2967 RMK A01 T02870214  RH  065%=      5-min Rain = 0
KCA1 272234Z 16019KT 29/21 A2967 RMK A01 T02870213  RH  064%=      5-min Rain = 0
KCA1 272235Z 17019KT 29/21 A2967 RMK A01 T02870212  RH  064%=      5-min Rain = 0
KCA1 272236Z 16019G24KT 29/21 A2967 RMK A01 T02890213  RH  064%=      5-min Rain = 0
KCA1 272237Z 16019KT 29/21 A2967 RMK A01 T02890212  RH  063%=      5-min Rain = 0
KCA1 272238Z 16015KT 29/21 A2967 RMK A01 T02880212  RH  064%=      5-min Rain = 0
KCA1 272239Z 15016KT 29/22 A2967 RMK A01 T02880216  RH  065%=      5-min Rain = 0
KCA1 272240Z 15019KT 29/22 A2967 RMK A01 T02870215  RH  065%=      5-min Rain = 0
KCA1 272241Z 14021KT 29/21 A2967 RMK A01 T02860214  RH  065%=      5-min Rain = 0
KCA1 272242Z 15020G25KT 29/21 A2967 RMK A01 T02850212  RH  065%=      5-min Rain = 0
KCA1 272243Z 15018KT 28/21 A2967 RMK A01 T02840213  RH  066%=      5-min Rain = 0
KCA1 272244Z 15018G23KT 28/21 A2967 RMK A01 T02830213  RH  066%=      5-min Rain = 0
KCA1 272245Z 15017KT 29/21 A2967 RMK A01 T02850214  RH  065%=      5-min Rain = 0
KCA1 272246Z 15018KT 29/22 A2967 RMK A01 T02860215  RH  065%=      5-min Rain = 0
KCA1 272247Z 15016G24KT 29/22 A2967 RMK A01 T02870215  RH  065%=      5-min Rain = 0
KCA1 272248Z 15019KT 29/22 A2967 RMK A01 T02880216  RH  065%=      5-min Rain = 0
KCA1 272249Z 15022KT 29/22 A2967 RMK A01 T02890215  RH  064%=      5-min Rain = 0
KCA1 272250Z 15020KT 29/21 A2967 RMK A01 T02890213  RH  064%=      5-min Rain = 0
KCA1 272251Z 15017KT 29/22 A2967 RMK A01 T02880215  RH  065%=      5-min Rain = 0
KCA1 272252Z 15018KT 29/22 A2967 RMK A01 T02880216  RH  065%=      5-min Rain = 0
KCA1 272253Z 15017KT 29/22 A2967 RMK A01 T02880215  RH  065%=      5-min Rain = 0
KCA1 272254Z 15018KT 29/22 A2967 RMK A01 T02880215  RH  065%=      5-min Rain = 0
KCA1 272255Z 14017G24KT 29/22 A2967 RMK A01 T02880215  RH  065%=      5-min Rain = 0
KCA1 272256Z 15013KT 29/22 A2967 RMK A01 T02870217  RH  066%=      5-min Rain = 0
KCA1 272257Z 15017KT 29/22 A2967 RMK A01 T02880218  RH  066%=      5-min Rain = 0
KCA1 272258Z 15014KT 29/22 A2967 RMK A01 T02890218  RH  065%=      5-min Rain = 0
KCA1 272259Z 15015KT 29/22 A2967 RMK A01 T02890220  RH  066%=      5-min Rain = 0
KCA1 272300Z 15017KT 29/22 A2967 RMK A01 T02900218  RH  065%=      5-min Rain = 0
KCA1 272301Z 16017G24KT 29/22 A2967 RMK A01 T02900220  RH  066%=      5-min Rain = 0
KCA1 272302Z 16020G25KT 29/22 A2967 RMK A01 T02900215  RH  064%=      5-min Rain = 0
KCA1 272303Z 15021KT 29/21 A2966 RMK A01 T02890213  RH  063%=      5-min Rain = 0
KCA1 272304Z 16023KT 29/21 A2966 RMK A01 T02880213  RH  064%=      5-min Rain = 0
KCA1 272305Z 15020KT 29/21 A2966 RMK A01 T02860211  RH  064%=      5-min Rain = 0
KCA1 272306Z 15019G24KT 29/21 A2966 RMK A01 T02850212  RH  065%=      5-min Rain = 0
KCA1 272307Z 15021KT 29/21 A2966 RMK A01 T02850213  RH  065%=      5-min Rain = 0
KCA1 272308Z 15018G25KT 29/21 A2966 RMK A01 T02850214  RH  065%=      5-min Rain = 0
KCA1 272309Z 15022KT 29/21 A2966 RMK A01 T02850213  RH  065%=      5-min Rain = 0
KCA1 272310Z 15020KT 29/21 A2966 RMK A01 T02850212  RH  065%=      5-min Rain = 0
KCA1 272311Z 15016KT 29/21 A2966 RMK A01 T02850213  RH  065%=      5-min Rain = 0
KCA1 272312Z 16015G21KT 29/22 A2966 RMK A01 T02850216  RH  066%=      5-min Rain = 0
KCA1 272313Z 16016KT 29/22 A2966 RMK A01 T02860216  RH  066%=      5-min Rain = 0
KCA1 272314Z 14020KT 29/21 A2966 RMK A01 T02870213  RH  064%=      5-min Rain = 0
KCA1 272315Z 15020KT 29/21 A2966 RMK A01 T02870213  RH  064%=      5-min Rain = 0
KCA1 272316Z 15018KT 29/21 A2966 RMK A01 T02860213  RH  065%=      5-min Rain = 0
KCA1 272317Z 16017G22KT 29/21 A2966 RMK A01 T02850214  RH  065%=      5-min Rain = 0
KCA1 272318Z 16017KT 29/21 A2966 RMK A01 T02850214  RH  065%=      5-min Rain = 0
KCA1 272319Z 15017KT 29/22 A2966 RMK A01 T02850215  RH  066%=      5-min Rain = 0
KCA1 272320Z 15020KT 29/22 A2966 RMK A01 T02860215  RH  065%=      5-min Rain = 0
KCA1 272321Z 14019G24KT 29/21 A2966 RMK A01 T02860214  RH  065%=      5-min Rain = 0
KCA1 272322Z 14020KT 29/21 A2966 RMK A01 T02850214  RH  065%=      5-min Rain = 0
KCA1 272323Z 14020G26KT 29/21 A2966 RMK A01 T02850214  RH  065%=      5-min Rain = 0
KCA1 272324Z 15020G25KT 28/21 A2965 RMK A01 T02840213  RH  065%=      5-min Rain = 0
KCA1 272325Z 15020G25KT 28/21 A2965 RMK A01 T02840213  RH  065%=      5-min Rain = 0
KCA1 272326Z 15017KT 28/21 A2965 RMK A01 T02840213  RH  065%=      5-min Rain = 0
KCA1 272327Z 15021KT 28/21 A2965 RMK A01 T02840213  RH  065%=      5-min Rain = 0
KCA1 272328Z 15022G27KT 28/21 A2965 RMK A01 T02840211  RH  065%=      5-min Rain = 0
KCA1 272329Z 15018KT 28/21 A2965 RMK A01 T02840211  RH  064%=      5-min Rain = 0
KCA1 272330Z 14019KT 28/21 A2965 RMK A01 T02840212  RH  065%=      5-min Rain = 0
KCA1 272331Z 14020G25KT 28/21 A2965 RMK A01 T02840213  RH  065%=      5-min Rain = 0
KCA1 272332Z 14017KT 28/21 A2965 RMK A01 T02840213  RH  065%=      5-min Rain = 0
KCA1 272333Z 15023KT 28/21 A2965 RMK A01 T02840212  RH  065%=      5-min Rain = 0
KCA1 272334Z 15021G26KT 28/21 A2965 RMK A01 T02830211  RH  065%=      5-min Rain = 0
KCA1 272335Z 15020G25KT 28/21 A2965 RMK A01 T02830212  RH  065%=      5-min Rain = 0
KCA1 272336Z 14017G22KT 28/21 A2965 RMK A01 T02830213  RH  066%=      5-min Rain = 0
KCA1 272337Z 15019KT 28/21 A2965 RMK A01 T02830212  RH  065%=      5-min Rain = 0
KCA1 272338Z 15016KT 28/21 A2965 RMK A01 T02830214  RH  066%=      5-min Rain = 0
KCA1 272339Z 15019KT 28/21 A2965 RMK A01 T02830214  RH  066%=      5-min Rain = 0
KCA1 272340Z 15019KT 28/21 A2965 RMK A01 T02830214  RH  066%=      5-min Rain = 0
KCA1 272341Z 15021G26KT 28/21 A2965 RMK A01 T02830213  RH  066%=      5-min Rain = 0
KCA1 272342Z 15022KT 28/21 A2965 RMK A01 T02830211  RH  065%=      5-min Rain = 0
KCA1 272343Z 15018KT 28/21 A2965 RMK A01 T02830212  RH  065%=      5-min Rain = 0
KCA1 272344Z 15016G24KT 28/21 A2965 RMK A01 T02830213  RH  066%=      5-min Rain = 0
KCA1 272345Z 15019KT 28/21 A2965 RMK A01 T02830213  RH  066%=      5-min Rain = 0
KCA1 272346Z 15018KT 28/21 A2965 RMK A01 T02830214  RH  066%=      5-min Rain = 0
KCA1 272347Z 15022KT 28/21 A2965 RMK A01 T02830211  RH  065%=      5-min Rain = 0
KCA1 272348Z 15022G27KT 28/21 A2965 RMK A01 T02830209  RH  065%=      5-min Rain = 0
KCA1 272349Z 15019G24KT 28/21 A2965 RMK A01 T02820210  RH  065%=      5-min Rain = 0
KCA1 272350Z 16019KT 28/21 A2965 RMK A01 T02820210  RH  065%=      5-min Rain = 0
KCA1 272351Z 16021KT 28/21 A2965 RMK A01 T02820209  RH  065%=      5-min Rain = 0
KCA1 272352Z 15022G28KT 28/21 A2965 RMK A01 T02810209  RH  065%=      5-min Rain = 0
KCA1 272353Z 15019G24KT 28/21 A2965 RMK A01 T02810209  RH  065%=      5-min Rain = 0
KCA1 272354Z 16021KT 28/21 A2965 RMK A01 T02810209  RH  065%=      5-min Rain = 0
KCA1 272355Z 15015KT 28/21 A2965 RMK A01 T02810209  RH  065%=      5-min Rain = 0
KCA1 272356Z 15021G28KT 28/21 A2965 RMK A01 T02810210  RH  065%=      5-min Rain = 0
KCA1 272357Z 15022G27KT 28/21 A2964 RMK A01 T02810207  RH  064%=      5-min Rain = 0
KCA1 272358Z 16019KT 28/21 A2964 RMK A01 T02810208  RH  065%=      5-min Rain = 0
KCA1 272359Z 14018G23KT 28/21 A2965 RMK A01 T02800209  RH  065%=      5-min Rain = 0
KCA1 280000Z 15016KT 28/21 A2965 RMK A01 T02800210  RH  066%=      5-min Rain = 0
KCA1 280001Z 15019G26KT 28/21 A2965 RMK A01 T02800209  RH  065%=      5-min Rain = 0
KCA1 280002Z 15020KT 28/21 A2965 RMK A01 T02790207  RH  065%=      5-min Rain = 0
KCA1 280003Z 15016G22KT 28/21 A2965 RMK A01 T02800208  RH  065%=      5-min Rain = 0
KCA1 280004Z 16016KT 28/21 A2965 RMK A01 T02800210  RH  066%=      5-min Rain = 0
KCA1 280005Z 16017KT 28/21 A2964 RMK A01 T02790209  RH  066%=      5-min Rain = 0
KCA1 280006Z 15016KT 28/21 A2964 RMK A01 T02790209  RH  066%=      5-min Rain = 0
KCA1 280007Z 14020G26KT 28/21 A2964 RMK A01 T02790208  RH  065%=      5-min Rain = 0
KCA1 280008Z 15023KT 28/21 A2964 RMK A01 T02790207  RH  065%=      5-min Rain = 0
KCA1 280009Z 15018KT 28/21 A2964 RMK A01 T02790207  RH  065%=      5-min Rain = 0
KCA1 280010Z 15019KT 28/21 A2964 RMK A01 T02790208  RH  066%=      5-min Rain = 0
KCA1 280011Z 15018G23KT 28/21 A2964 RMK A01 T02780208  RH  065%=      5-min Rain = 0
KCA1 280012Z 15021KT 28/21 A2964 RMK A01 T02790208  RH  065%=      5-min Rain = 0
KCA1 280013Z 15020KT 28/21 A2964 RMK A01 T02790208  RH  065%=      5-min Rain = 0
KCA1 280014Z 15015KT 28/21 A2964 RMK A01 T02780209  RH  066%=      5-min Rain = 0
KCA1 280015Z 15019G26KT 28/21 A2964 RMK A01 T02780210  RH  066%=      5-min Rain = 0
KCA1 280016Z 15021G28KT 28/21 A2964 RMK A01 T02780208  RH  066%=      5-min Rain = 0
KCA1 280017Z 15023KT 28/21 A2964 RMK A01 T02780207  RH  065%=      5-min Rain = 0
KCA1 280018Z 15022KT 28/21 A2964 RMK A01 T02780206  RH  065%=      5-min Rain = 0
KCA1 280019Z 16023KT 28/21 A2964 RMK A01 T02770206  RH  065%=      5-min Rain = 0
KCA1 280020Z 16021KT 28/21 A2964 RMK A01 T02770206  RH  065%=      5-min Rain = 0
KCA1 280021Z 16019KT 28/21 A2964 RMK A01 T02770206  RH  065%=      5-min Rain = 0
KCA1 280022Z 15014KT 28/21 A2964 RMK A01 T02770208  RH  066%=      5-min Rain = 0
KCA1 280023Z 15018G24KT 28/21 A2964 RMK A01 T02770208  RH  066%=      5-min Rain = 0
KCA1 280024Z 16022KT 28/21 A2964 RMK A01 T02760206  RH  066%=      5-min Rain = 0
KCA1 280025Z 16018KT 28/21 A2964 RMK A01 T02760206  RH  066%=      5-min Rain = 0
KCA1 280026Z 15020G26KT 28/21 A2964 RMK A01 T02760206  RH  066%=      5-min Rain = 0
KCA1 280027Z 15020KT 28/21 A2964 RMK A01 T02760205  RH  066%=      5-min Rain = 0
KCA1 280028Z 15020KT 28/21 A2964 RMK A01 T02750205  RH  066%=      5-min Rain = 0
KCA1 280029Z 14019G24KT 28/20 A2964 RMK A01 T02750204  RH  065%=      5-min Rain = 0
KCA1 280030Z 15022KT 28/20 A2964 RMK A01 T02750204  RH  065%=      5-min Rain = 0
KCA1 280031Z 15019KT 27/20 A2964 RMK A01 T02740204  RH  065%=      5-min Rain = 0
KCA1 280032Z 15018G23KT 27/21 A2964 RMK A01 T02740205  RH  066%=      5-min Rain = 0
KCA1 280033Z 15017KT 27/21 A2964 RMK A01 T02740205  RH  066%=      5-min Rain = 0
KCA1 280034Z 15019G24KT 27/21 A2964 RMK A01 T02730205  RH  066%=      5-min Rain = 0
KCA1 280035Z 15017KT 27/21 A2964 RMK A01 T02730205  RH  066%=      5-min Rain = 0
KCA1 280036Z 15018KT 27/21 A2964 RMK A01 T02730205  RH  066%=      5-min Rain = 0
KCA1 280037Z 15019KT 27/21 A2964 RMK A01 T02730206  RH  067%=      5-min Rain = 0
KCA1 280038Z 15018KT 27/20 A2964 RMK A01 T02720204  RH  066%=      5-min Rain = 0
KCA1 280039Z 15017KT 27/21 A2964 RMK A01 T02720205  RH  067%=      5-min Rain = 0
KCA1 280040Z 15016G21KT 27/21 A2964 RMK A01 T02720206  RH  067%=      5-min Rain = 0
KCA1 280041Z 15016KT 27/21 A2964 RMK A01 T02720205  RH  067%=      5-min Rain = 0
KCA1 280042Z 15015KT 27/21 A2964 RMK A01 T02710206  RH  067%=      5-min Rain = 0
KCA1 280043Z 15012KT 27/21 A2964 RMK A01 T02710207  RH  068%=      5-min Rain = 0
KCA1 280044Z 15017KT 27/21 A2965 RMK A01 T02700206  RH  068%=      5-min Rain = 0
KCA1 280045Z 15018KT 27/21 A2965 RMK A01 T02700205  RH  068%=      5-min Rain = 0
KCA1 280046Z 15016KT 27/21 A2965 RMK A01 T02700205  RH  068%=      5-min Rain = 0
KCA1 280047Z 15015KT 27/21 A2965 RMK A01 T02700206  RH  068%=      5-min Rain = 0
KCA1 280048Z 15016KT 27/21 A2965 RMK A01 T02690206  RH  068%=      5-min Rain = 0
KCA1 280049Z 15013KT 27/21 A2965 RMK A01 T02690206  RH  068%=      5-min Rain = 0
KCA1 280050Z 15017KT 27/21 A2965 RMK A01 T02690206  RH  068%=      5-min Rain = 0
KCA1 280051Z 15016KT 27/21 A2965 RMK A01 T02690205  RH  068%=      5-min Rain = 0
KCA1 280052Z 15016G21KT 27/21 A2965 RMK A01 T02680205  RH  068%=      5-min Rain = 0
KCA1 280053Z 15017G22KT 27/21 A2965 RMK A01 T02680205  RH  068%=      5-min Rain = 0
KCA1 280054Z 15015KT 27/21 A2965 RMK A01 T02680205  RH  069%=      5-min Rain = 0
KCA1 280055Z 15016KT 27/21 A2965 RMK A01 T02670205  RH  069%=      5-min Rain = 0
KCA1 280056Z 15017KT 27/21 A2965 RMK A01 T02670205  RH  069%=      5-min Rain = 0
KCA1 280057Z 15018KT 27/20 A2965 RMK A01 T02660204  RH  069%=      5-min Rain = 0
KCA1 280058Z 15016KT 27/21 A2965 RMK A01 T02660205  RH  069%=      5-min Rain = 0
KCA1 280059Z 15017KT 27/21 A2965 RMK A01 T02660205  RH  069%=      5-min Rain = 0
KCA1 280100Z 15019G25KT 27/20 A2965 RMK A01 T02660204  RH  069%=      5-min Rain = 0
KCA1 280101Z 15019G24KT 27/20 A2965 RMK A01 T02660203  RH  068%=      5-min Rain = 0
KCA1 280102Z 14016G21KT 27/20 A2965 RMK A01 T02660204  RH  069%=      5-min Rain = 0
KCA1 280103Z 15017KT 27/20 A2965 RMK A01 T02650204  RH  069%=      5-min Rain = 0
KCA1 280104Z 15018KT 27/20 A2965 RMK A01 T02650203  RH  069%=      5-min Rain = 0
KCA1 280105Z 16017KT 26/20 A2965 RMK A01 T02640203  RH  069%=      5-min Rain = 0
KCA1 280106Z 15015KT 26/20 A2965 RMK A01 T02640203  RH  069%=      5-min Rain = 0
KCA1 280107Z 15015KT 26/20 A2965 RMK A01 T02630203  RH  070%=      5-min Rain = 0
KCA1 280108Z 15016KT 26/20 A2965 RMK A01 T02630203  RH  070%=      5-min Rain = 0
KCA1 280109Z 15017KT 26/20 A2965 RMK A01 T02630203  RH  070%=      5-min Rain = 0
KCA1 280110Z 15015KT 26/20 A2965 RMK A01 T02620201  RH  069%=      5-min Rain = 0
KCA1 280111Z 15019KT 26/20 A2965 RMK A01 T02620201  RH  069%=      5-min Rain = 0
KCA1 280112Z 15016KT 26/20 A2965 RMK A01 T02620201  RH  069%=      5-min Rain = 0
KCA1 280113Z 15017KT 26/20 A2965 RMK A01 T02620202  RH  069%=      5-min Rain = 0
KCA1 280114Z 15014G19KT 26/20 A2965 RMK A01 T02620202  RH  070%=      5-min Rain = 0
KCA1 280115Z 14014KT 26/20 A2965 RMK A01 T02610202  RH  070%=      5-min Rain = 0
KCA1 280116Z 15017G23KT 26/20 A2965 RMK A01 T02600201  RH  070%=      5-min Rain = 0
KCA1 280117Z 15017G24KT 26/20 A2965 RMK A01 T02600200  RH  069%=      5-min Rain = 0
KCA1 280118Z 15018KT 26/20 A2965 RMK A01 T02600200  RH  069%=      5-min Rain = 0
KCA1 280119Z 15017KT 26/20 A2965 RMK A01 T02600199  RH  069%=      5-min Rain = 0
KCA1 280120Z 15014KT 26/20 A2965 RMK A01 T02600200  RH  069%=      5-min Rain = 0
KCA1 280121Z 15016KT 26/20 A2965 RMK A01 T02590200  RH  070%=      5-min Rain = 0
KCA1 280122Z 15016KT 26/20 A2965 RMK A01 T02590199  RH  070%=      5-min Rain = 0
KCA1 280123Z 15013KT 26/20 A2965 RMK A01 T02590200  RH  070%=      5-min Rain = 0
KCA1 280124Z 15016KT 26/20 A2965 RMK A01 T02580200  RH  070%=      5-min Rain = 0
KCA1 280125Z 15016KT 26/20 A2965 RMK A01 T02580199  RH  070%=      5-min Rain = 0
KCA1 280126Z 15015KT 26/20 A2965 RMK A01 T02570199  RH  070%=      5-min Rain = 0
KCA1 280127Z 15013KT 26/20 A2965 RMK A01 T02570199  RH  070%=      5-min Rain = 0
KCA1 280128Z 15016KT 26/20 A2965 RMK A01 T02560199  RH  071%=      5-min Rain = 0
KCA1 280129Z 15015KT 26/20 A2965 RMK A01 T02560199  RH  071%=      5-min Rain = 0
KCA1 280130Z 15016KT 26/20 A2965 RMK A01 T02550198  RH  070%=      5-min Rain = 0
KCA1 280131Z 14016KT 26/20 A2965 RMK A01 T02550198  RH  070%=      5-min Rain = 0
KCA1 280132Z 14015KT 26/20 A2965 RMK A01 T02550197  RH  070%=      5-min Rain = 0
KCA1 280133Z 15014KT 26/20 A2965 RMK A01 T02550198  RH  070%=      5-min Rain = 0
KCA1 280134Z 15015KT 26/20 A2965 RMK A01 T02550198  RH  071%=      5-min Rain = 0
KCA1 280135Z 15016KT 25/20 A2965 RMK A01 T02540197  RH  070%=      5-min Rain = 0
KCA1 280136Z 14014KT 25/20 A2965 RMK A01 T02540197  RH  070%=      5-min Rain = 0
KCA1 280137Z 15014G19KT 25/20 A2965 RMK A01 T02540197  RH  071%=      5-min Rain = 0
KCA1 280138Z 14014KT 25/20 A2965 RMK A01 T02540197  RH  071%=      5-min Rain = 0
KCA1 280139Z 14014KT 25/20 A2965 RMK A01 T02530197  RH  071%=      5-min Rain = 0
KCA1 280140Z 15016KT 25/20 A2965 RMK A01 T02520197  RH  071%=      5-min Rain = 0
KCA1 280141Z 15014KT 25/20 A2965 RMK A01 T02520197  RH  072%=      5-min Rain = 0
KCA1 280142Z 14016KT 25/20 A2965 RMK A01 T02520197  RH  072%=      5-min Rain = 0
KCA1 280143Z 15017KT 25/20 A2965 RMK A01 T02520196  RH  071%=      5-min Rain = 0
KCA1 280144Z 15014KT 25/20 A2965 RMK A01 T02520196  RH  071%=      5-min Rain = 0
KCA1 280145Z 15014KT 25/20 A2965 RMK A01 T02520197  RH  071%=      5-min Rain = 0
KCA1 280146Z 15016KT 25/20 A2965 RMK A01 T02510196  RH  071%=      5-min Rain = 0
KCA1 280147Z 15016KT 25/20 A2965 RMK A01 T02510196  RH  071%=      5-min Rain = 0
KCA1 280148Z 15013KT 25/20 A2965 RMK A01 T02510195  RH  071%=      5-min Rain = 0
KCA1 280149Z 15015KT 25/20 A2965 RMK A01 T02510196  RH  071%=      5-min Rain = 0
KCA1 280150Z 15017KT 25/20 A2965 RMK A01 T02500195  RH  071%=      5-min Rain = 0
KCA1 280151Z 15015KT 25/19 A2965 RMK A01 T02500194  RH  071%=      5-min Rain = 0
KCA1 280152Z 15016KT 25/19 A2965 RMK A01 T02500194  RH  071%=      5-min Rain = 0
KCA1 280153Z 15015KT 25/19 A2965 RMK A01 T02500194  RH  071%=      5-min Rain = 0
KCA1 280154Z 15013KT 25/19 A2965 RMK A01 T02500194  RH  071%=      5-min Rain = 0
KCA1 280155Z 15014KT 25/19 A2965 RMK A01 T02500194  RH  071%=      5-min Rain = 0
KCA1 280156Z 15012G17KT 25/19 A2965 RMK A01 T02490194  RH  072%=      5-min Rain = 0
KCA1 280157Z 15013KT 25/19 A2965 RMK A01 T02480194  RH  072%=      5-min Rain = 0
KCA1 280158Z 15011KT 25/19 A2965 RMK A01 T02470194  RH  072%=      5-min Rain = 0
KCA1 280159Z 15013KT 25/19 A2965 RMK A01 T02460194  RH  073%=      5-min Rain = 0
KCA1 280200Z 15013KT 25/19 A2965 RMK A01 T02460193  RH  072%=      5-min Rain = 0
KCA1 280201Z 15012KT 25/19 A2965 RMK A01 T02460193  RH  072%=      5-min Rain = 0
KCA1 280202Z 14012KT 25/19 A2965 RMK A01 T02460193  RH  073%=      5-min Rain = 0
KCA1 280203Z 14012KT 25/19 A2965 RMK A01 T02450193  RH  073%=      5-min Rain = 0
KCA1 280204Z 14013KT 25/19 A2965 RMK A01 T02450193  RH  073%=      5-min Rain = 0
KCA1 280205Z 14011KT 24/19 A2965 RMK A01 T02440193  RH  073%=      5-min Rain = 0
KCA1 280206Z 14011KT 24/19 A2965 RMK A01 T02430194  RH  074%=      5-min Rain = 0
KCA1 280207Z 14012KT 24/19 A2965 RMK A01 T02420193  RH  074%=      5-min Rain = 0
KCA1 280208Z 14013KT 24/19 A2965 RMK A01 T02420193  RH  074%=      5-min Rain = 0
KCA1 280209Z 14013G18KT 24/19 A2965 RMK A01 T02420194  RH  074%=      5-min Rain = 0
KCA1 280210Z 14012KT 24/19 A2965 RMK A01 T02420194  RH  074%=      5-min Rain = 0
KCA1 280211Z 14011KT 24/19 A2965 RMK A01 T02420194  RH  075%=      5-min Rain = 0
KCA1 280212Z 15013KT 24/20 A2965 RMK A01 T02420195  RH  075%=      5-min Rain = 0
KCA1 280213Z 15014KT 24/20 A2965 RMK A01 T02420196  RH  076%=      5-min Rain = 0
KCA1 280214Z 15015KT 24/20 A2965 RMK A01 T02420196  RH  076%=      5-min Rain = 0
KCA1 280215Z 15013KT 24/20 A2965 RMK A01 T02410196  RH  076%=      5-min Rain = 0
KCA1 280216Z 15012KT 24/20 A2965 RMK A01 T02410196  RH  076%=      5-min Rain = 0
KCA1 280217Z 14014KT 24/20 A2965 RMK A01 T02410198  RH  076%=      5-min Rain = 0
KCA1 280218Z 14012KT 24/20 A2965 RMK A01 T02410198  RH  077%=      5-min Rain = 0
KCA1 280219Z 15014KT 24/20 A2965 RMK A01 T02410198  RH  077%=      5-min Rain = 0
KCA1 280220Z 14013KT 24/20 A2965 RMK A01 T02410199  RH  077%=      5-min Rain = 0
KCA1 280221Z 14012KT 24/20 A2965 RMK A01 T02410199  RH  077%=      5-min Rain = 0
KCA1 280222Z 14012KT 24/20 A2965 RMK A01 T02400199  RH  078%=      5-min Rain = 0
KCA1 280223Z 14014KT 24/20 A2965 RMK A01 T02400200  RH  078%=      5-min Rain = 0
KCA1 280224Z 14013KT 24/20 A2965 RMK A01 T02400200  RH  078%=      5-min Rain = 0
KCA1 280225Z 15014KT 24/20 A2965 RMK A01 T02400200  RH  079%=      5-min Rain = 0
KCA1 280226Z 14015G20KT 24/20 A2965 RMK A01 T02390200  RH  079%=      5-min Rain = 0
KCA1 280227Z 14014KT 24/20 A2965 RMK A01 T02400200  RH  079%=      5-min Rain = 0
KCA1 280228Z 15014KT 24/20 A2965 RMK A01 T02400200  RH  079%=      5-min Rain = 0
KCA1 280229Z 14014KT 24/20 A2965 RMK A01 T02400201  RH  079%=      5-min Rain = 0
KCA1 280230Z 14014KT 24/20 A2965 RMK A01 T02400201  RH  079%=      5-min Rain = 0
KCA1 280231Z 14013KT 24/20 A2965 RMK A01 T02400201  RH  079%=      5-min Rain = 0
KCA1 280232Z 14012KT 24/20 A2965 RMK A01 T02400202  RH  079%=      5-min Rain = 0
KCA1 280233Z 14012KT 24/20 A2965 RMK A01 T02390201  RH  080%=      5-min Rain = 0
KCA1 280234Z 14014KT 24/20 A2965 RMK A01 T02390202  RH  080%=      5-min Rain = 0
KCA1 280235Z 14014KT 24/20 A2965 RMK A01 T02390202  RH  080%=      5-min Rain = 0
KCA1 280236Z 14013KT 24/20 A2965 RMK A01 T02390202  RH  080%=      5-min Rain = 0
KCA1 280237Z 15014KT 24/20 A2965 RMK A01 T02390202  RH  080%=      5-min Rain = 0
KCA1 280238Z 15014KT 24/20 A2965 RMK A01 T02390202  RH  080%=      5-min Rain = 0
KCA1 280239Z 14011KT 24/20 A2965 RMK A01 T02390202  RH  080%=      5-min Rain = 0
KCA1 280240Z 14011KT 24/20 A2965 RMK A01 T02380202  RH  080%=      5-min Rain = 0
KCA1 280241Z 14014KT 24/20 A2965 RMK A01 T02380202  RH  080%=      5-min Rain = 0
KCA1 280242Z 14015KT 24/20 A2965 RMK A01 T02380201  RH  080%=      5-min Rain = 0
KCA1 280243Z 14013G18KT 24/20 A2965 RMK A01 T02380202  RH  080%=      5-min Rain = 0
KCA1 280244Z 14014KT 24/20 A2965 RMK A01 T02390202  RH  080%=      5-min Rain = 0
KCA1 280245Z 14012KT 24/20 A2965 RMK A01 T02390202  RH  080%=      5-min Rain = 0
KCA1 280246Z 14013KT 24/20 A2965 RMK A01 T02380202  RH  080%=      5-min Rain = 0
KCA1 280247Z 14012KT 24/20 A2966 RMK A01 T02380202  RH  080%=      5-min Rain = 0
KCA1 280248Z 14013KT 24/20 A2966 RMK A01 T02380202  RH  081%=      5-min Rain = 0
KCA1 280249Z 14012KT 24/20 A2966 RMK A01 T02370202  RH  081%=      5-min Rain = 0
KCA1 280250Z 14012KT 24/20 A2966 RMK A01 T02370202  RH  081%=      5-min Rain = 0
KCA1 280251Z 14014KT 24/20 A2966 RMK A01 T02360202  RH  081%=      5-min Rain = 0
KCA1 280252Z 14012KT 24/20 A2966 RMK A01 T02360202  RH  081%=      5-min Rain = 0
KCA1 280253Z 14014KT 24/20 A2966 RMK A01 T02360202  RH  081%=      5-min Rain = 0
KCA1 280254Z 14013KT 24/20 A2966 RMK A01 T02360202  RH  081%=      5-min Rain = 0
KCA1 280255Z 14015KT 24/20 A2966 RMK A01 T02360202  RH  081%=      5-min Rain = 0
KCA1 280256Z 14016KT 24/20 A2965 RMK A01 T02360202  RH  081%=      5-min Rain = 0
KCA1 280257Z 14015KT 24/20 A2965 RMK A01 T02360201  RH  081%=      5-min Rain = 0
KCA1 280258Z 14015KT 24/20 A2965 RMK A01 T02360202  RH  081%=      5-min Rain = 0
KCA1 280259Z 14015KT 24/20 A2965 RMK A01 T02360202  RH  081%=      5-min Rain = 0
KCA1 280300Z 14014KT 24/20 A2965 RMK A01 T02360202  RH  081%=      5-min Rain = 0
KCA1 280301Z 14014KT 24/20 A2965 RMK A01 T02360202  RH  081%=      5-min Rain = 0
KCA1 280302Z 14013KT 24/20 A2965 RMK A01 T02360203  RH  082%=      5-min Rain = 0
KCA1 280303Z 14016KT 24/20 A2965 RMK A01 T02350203  RH  082%=      5-min Rain = 0
KCA1 280304Z 14016KT 24/20 A2965 RMK A01 T02350202  RH  082%=      5-min Rain = 0
KCA1 280305Z 14014G19KT 24/20 A2965 RMK A01 T02350203  RH  082%=      5-min Rain = 0
KCA1 280306Z 14014KT 24/20 A2965 RMK A01 T02350203  RH  082%=      5-min Rain = 0
KCA1 280307Z 14015KT 24/20 A2966 RMK A01 T02350203  RH  082%=      5-min Rain = 0
KCA1 280308Z 15015KT 24/20 A2966 RMK A01 T02350203  RH  082%=      5-min Rain = 0
KCA1 280309Z 14015KT 24/20 A2966 RMK A01 T02350203  RH  082%=      5-min Rain = 0
KCA1 280310Z 15016KT 24/20 A2966 RMK A01 T02350204  RH  083%=      5-min Rain = 0
KCA1 280311Z 14017KT 24/20 A2966 RMK A01 T02350204  RH  083%=      5-min Rain = 0
KCA1 280312Z 14016KT 24/20 A2966 RMK A01 T02350204  RH  082%=      5-min Rain = 0
KCA1 280313Z 14016G22KT 24/20 A2966 RMK A01 T02360204  RH  082%=      5-min Rain = 0
KCA1 280314Z 14017KT 24/20 A2966 RMK A01 T02350204  RH  082%=      5-min Rain = 0
KCA1 280315Z 14017KT 24/20 A2966 RMK A01 T02360204  RH  083%=      5-min Rain = 0
KCA1 280316Z 14015KT 24/20 A2965 RMK A01 T02360204  RH  083%=      5-min Rain = 0
KCA1 280317Z 14015KT 24/21 A2965 RMK A01 T02350205  RH  083%=      5-min Rain = 0
KCA1 280318Z 14015KT 24/21 A2966 RMK A01 T02350205  RH  083%=      5-min Rain = 0
KCA1 280319Z 14014KT 24/21 A2966 RMK A01 T02350205  RH  083%=      5-min Rain = 0
KCA1 280320Z 15015KT 23/21 A2966 RMK A01 T02340205  RH  084%=      5-min Rain = 0
KCA1 280321Z 14013KT 23/21 A2966 RMK A01 T02340205  RH  084%=      5-min Rain = 0
KCA1 280322Z 14016KT 23/21 A2965 RMK A01 T02340205  RH  084%=      5-min Rain = 0
KCA1 280323Z 14017KT 23/21 A2965 RMK A01 T02340205  RH  084%=      5-min Rain = 0
KCA1 280324Z 14016KT 23/21 A2965 RMK A01 T02340205  RH  084%=      5-min Rain = 0
KCA1 280325Z 14016KT 23/21 A2965 RMK A01 T02340205  RH  084%=      5-min Rain = 0
KCA1 280326Z 14017G22KT 23/21 A2965 RMK A01 T02340205  RH  084%=      5-min Rain = 0
KCA1 280327Z 14017KT 23/21 A2965 RMK A01 T02340205  RH  084%=      5-min Rain = 0
KCA1 280328Z 15015G20KT 24/21 A2965 RMK A01 T02350206  RH  084%=      5-min Rain = 0
KCA1 280329Z 14018KT 24/21 A2965 RMK A01 T02350206  RH  084%=      5-min Rain = 0
KCA1 280330Z 14015KT 24/21 A2965 RMK A01 T02350206  RH  084%=      5-min Rain = 0
KCA1 280331Z 15015G20KT 24/21 A2965 RMK A01 T02350206  RH  084%=      5-min Rain = 0
KCA1 280332Z 14014KT 23/21 A2965 RMK A01 T02340206  RH  084%=      5-min Rain = 0
KCA1 280333Z 14017G22KT 23/21 A2965 RMK A01 T02340206  RH  084%=      5-min Rain = 0
KCA1 280334Z 14016KT 23/21 A2965 RMK A01 T02340206  RH  084%=      5-min Rain = 0
KCA1 280335Z 14016KT 23/21 A2965 RMK A01 T02340206  RH  084%=      5-min Rain = 0
KCA1 280336Z 15017KT 23/21 A2965 RMK A01 T02340206  RH  084%=      5-min Rain = 0
KCA1 280337Z 15019G24KT 23/21 A2966 RMK A01 T02340206  RH  084%=      5-min Rain = 0
KCA1 280338Z 14017KT 23/21 A2965 RMK A01 T02340206  RH  084%=      5-min Rain = 0
KCA1 280339Z 14018KT 23/21 A2966 RMK A01 T02340205  RH  084%=      5-min Rain = 0
KCA1 280340Z 14019KT 23/21 A2965 RMK A01 T02340205  RH  084%=      5-min Rain = 0
KCA1 280341Z 14016KT 23/21 A2966 RMK A01 T02340205  RH  084%=      5-min Rain = 0
KCA1 280342Z 14016KT 23/21 A2966 RMK A01 T02340205  RH  084%=      5-min Rain = 0
KCA1 280343Z 15015KT 23/21 A2966 RMK A01 T02330206  RH  084%=      5-min Rain = 0
KCA1 280344Z 15017KT 23/21 A2966 RMK A01 T02330206  RH  085%=      5-min Rain = 0
KCA1 280345Z 14018KT 23/21 A2966 RMK A01 T02330205  RH  085%=      5-min Rain = 0
KCA1 280346Z 15015KT 23/21 A2966 RMK A01 T02320205  RH  085%=      5-min Rain = 0
KCA1 280347Z 15020G25KT 23/21 A2966 RMK A01 T02330205  RH  085%=      5-min Rain = 0
KCA1 280348Z 15017KT 23/21 A2966 RMK A01 T02330205  RH  084%=      5-min Rain = 0
KCA1 280349Z 15016KT 23/21 A2966 RMK A01 T02330205  RH  084%=      5-min Rain = 0
KCA1 280350Z 15016KT 23/21 A2966 RMK A01 T02330205  RH  085%=      5-min Rain = 0
KCA1 280351Z 14017G22KT 23/21 A2966 RMK A01 T02320205  RH  085%=      5-min Rain = 0
KCA1 280352Z 14016G21KT 23/21 A2966 RMK A01 T02330206  RH  085%=      5-min Rain = 0
KCA1 280353Z 15020KT 23/21 A2965 RMK A01 T02320205  RH  085%=      5-min Rain = 0
KCA1 280354Z 15018KT 23/21 A2965 RMK A01 T02320205  RH  085%=      5-min Rain = 0
KCA1 280355Z 15019KT 23/21 A2965 RMK A01 T02320205  RH  085%=      5-min Rain = 0
KCA1 280356Z 15018KT 23/21 A2965 RMK A01 T02320205  RH  085%=      5-min Rain = 0
KCA1 280357Z 15018KT 23/21 A2965 RMK A01 T02320205  RH  085%=      5-min Rain = 0
KCA1 280358Z 15016KT 23/21 A2965 RMK A01 T02330205  RH  085%=      5-min Rain = 0
KCA1 280359Z 15014G19KT 23/21 A2965 RMK A01 T02320205  RH  085%=      5-min Rain = 0
KCA1 280400Z 15018KT 23/21 A2965 RMK A01 T02310205  RH  085%=      5-min Rain = 0
KCA1 280401Z 15017G22KT 23/21 A2965 RMK A01 T02320205  RH  085%=      5-min Rain = 0
KCA1 280402Z 15017KT 23/21 A2965 RMK A01 T02310205  RH  085%=      5-min Rain = 0
KCA1 280403Z 15020KT 23/21 A2965 RMK A01 T02320205  RH  085%=      5-min Rain = 0
KCA1 280404Z 15019KT 23/21 A2965 RMK A01 T02320205  RH  085%=      5-min Rain = 0
KCA1 280405Z 15017G22KT 23/21 A2965 RMK A01 T02310205  RH  085%=      5-min Rain = 0
KCA1 280406Z 15017KT 23/21 A2965 RMK A01 T02310205  RH  085%=      5-min Rain = 0
KCA1 280407Z 15019KT 23/21 A2965 RMK A01 T02310205  RH  085%=      5-min Rain = 0
KCA1 280408Z 15016G22KT 23/21 A2965 RMK A01 T02310205  RH  085%=      5-min Rain = 0
KCA1 280409Z 15019KT 23/21 A2965 RMK A01 T02310205  RH  085%=      5-min Rain = 0
KCA1 280410Z 15018KT 23/21 A2965 RMK A01 T02310205  RH  085%=      5-min Rain = 0
KCA1 280411Z 16019G24KT 23/21 A2965 RMK A01 T02310205  RH  085%=      5-min Rain = 0
KCA1 280412Z 15018KT 23/20 A2965 RMK A01 T02310204  RH  085%=      5-min Rain = 0
KCA1 280413Z 15017G22KT 23/20 A2965 RMK A01 T02310204  RH  085%=      5-min Rain = 0
KCA1 280414Z 15015KT 23/20 A2965 RMK A01 T02310204  RH  085%=      5-min Rain = 0
KCA1 280415Z 15018G24KT 23/20 A2965 RMK A01 T02300204  RH  085%=      5-min Rain = 0
KCA1 280416Z 15017KT 23/20 A2965 RMK A01 T02300204  RH  085%=      5-min Rain = 0
KCA1 280417Z 15016KT 23/20 A2965 RMK A01 T02300204  RH  085%=      5-min Rain = 0
KCA1 280418Z 15017G25KT 23/20 A2965 RMK A01 T02300204  RH  085%=      5-min Rain = 0
KCA1 280419Z 15022KT 23/20 A2965 RMK A01 T02300204  RH  085%=      5-min Rain = 0
KCA1 280420Z 15020G28KT 23/20 A2965 RMK A01 T02300203  RH  085%=      5-min Rain = 0
KCA1 280421Z 15022KT 23/20 A2965 RMK A01 T02310203  RH  084%=      5-min Rain = 0
KCA1 280422Z 15019KT 23/20 A2965 RMK A01 T02310203  RH  084%=      5-min Rain = 0
KCA1 280423Z 15019G24KT 23/20 A2965 RMK A01 T02310203  RH  084%=      5-min Rain = 0
KCA1 280424Z 16018KT 23/20 A2965 RMK A01 T02320203  RH  084%=      5-min Rain = 0
KCA1 280425Z 15019G25KT 23/20 A2965 RMK A01 T02310203  RH  084%=      5-min Rain = 0
KCA1 280426Z 15019G24KT 23/20 A2965 RMK A01 T02310203  RH  084%=      5-min Rain = 0
KCA1 280427Z 15017KT 23/20 A2965 RMK A01 T02310203  RH  084%=      5-min Rain = 0
KCA1 280428Z 15019KT 23/20 A2965 RMK A01 T02310203  RH  084%=      5-min Rain = 0
KCA1 280429Z 15017G22KT 23/20 A2965 RMK A01 T02310203  RH  084%=      5-min Rain = 0
KCA1 280430Z 16017KT 23/20 A2965 RMK A01 T02300203  RH  085%=      5-min Rain = 0
KCA1 280431Z 15019G24KT 23/20 A2965 RMK A01 T02300202  RH  085%=      5-min Rain = 0
KCA1 280432Z 15017KT 23/20 A2965 RMK A01 T02300202  RH  085%=      5-min Rain = 0
KCA1 280433Z 15018KT 23/20 A2965 RMK A01 T02290202  RH  085%=      5-min Rain = 0
KCA1 280434Z 15016KT 23/20 A2965 RMK A01 T02290202  RH  085%=      5-min Rain = 0
KCA1 280435Z 15016G23KT 23/20 A2965 RMK A01 T02290202  RH  085%=      5-min Rain = 0
KCA1 280436Z 15018KT 23/20 A2965 RMK A01 T02290202  RH  085%=      5-min Rain = 0
KCA1 280437Z 15016KT 23/20 A2965 RMK A01 T02280201  RH  085%=      5-min Rain = 0
KCA1 280438Z 15019G24KT 23/20 A2965 RMK A01 T02280201  RH  085%=      5-min Rain = 0
KCA1 280439Z 15020KT 23/20 A2965 RMK A01 T02280201  RH  085%=      5-min Rain = 0
KCA1 280440Z 15017KT 23/20 A2965 RMK A01 T02290201  RH  084%=      5-min Rain = 0
KCA1 280441Z 15016G22KT 23/20 A2965 RMK A01 T02290201  RH  084%=      5-min Rain = 0
KCA1 280442Z 16020G25KT 23/20 A2965 RMK A01 T02280201  RH  085%=      5-min Rain = 0
KCA1 280443Z 15019KT 23/20 A2965 RMK A01 T02280201  RH  084%=      5-min Rain = 0
KCA1 280444Z 15020KT 23/20 A2965 RMK A01 T02280201  RH  084%=      5-min Rain = 0
KCA1 280445Z 16017G24KT 23/20 A2965 RMK A01 T02280200  RH  084%=      5-min Rain = 0
KCA1 280446Z 16018G24KT 23/20 A2965 RMK A01 T02280200  RH  084%=      5-min Rain = 0
KCA1 280447Z 16018KT 23/20 A2964 RMK A01 T02280201  RH  084%=      5-min Rain = 0
KCA1 280448Z 16018KT 23/20 A2965 RMK A01 T02280201  RH  084%=      5-min Rain = 0
KCA1 280449Z 16020KT 23/20 A2964 RMK A01 T02280200  RH  084%=      5-min Rain = 0
KCA1 280450Z 15016KT 23/20 A2964 RMK A01 T02280200  RH  084%=      5-min Rain = 0
KCA1 280451Z 16018G24KT 23/20 A2964 RMK A01 T02280200  RH  084%=      5-min Rain = 0
KCA1 280452Z 15019KT 23/20 A2964 RMK A01 T02280200  RH  084%=      5-min Rain = 0
KCA1 280453Z 16017KT 23/20 A2964 RMK A01 T02270200  RH  084%=      5-min Rain = 0
KCA1 280454Z 15015G22KT 23/20 A2964 RMK A01 T02270200  RH  085%=      5-min Rain = 0
KCA1 280455Z 16017G22KT 23/20 A2964 RMK A01 T02260199  RH  085%=      5-min Rain = 0
KCA1 280456Z 16017G23KT 23/20 A2964 RMK A01 T02260200  RH  085%=      5-min Rain = 0
KCA1 280457Z 16018KT 23/20 A2964 RMK A01 T02260200  RH  085%=      5-min Rain = 0
KCA1 280458Z 16020G25KT 23/20 A2964 RMK A01 T02260199  RH  085%=      5-min Rain = 0
KCA1 280459Z 15018G24KT 23/20 A2964 RMK A01 T02270199  RH  084%=      5-min Rain = 0

Page generated in 0.1414 seconds.